<?xml version="1.0" encoding="UTF-8" standalone="no" ?>
<gpx xmlns="http://www.topografix.com/GPX/1/1" xmlns:xsi="http://www.w3.org/2001/XMLSchema-instance" xsi:schemaLocation="http://www.topografix.com/GPX/1/1 http://www.topografix.com/GPX/1/1/gpx.xsd" version="1.1" creator="VisuGPX - https://www.visugpx.com">
  <metadata>
    <name>V-15-09-02-sergy grilly</name>
    <desc><![CDATA[parcours aller-retour]]></desc>
  </metadata>
  <trk>
    <name><![CDATA[02-09-2015 18:35:15]]></name>
    <trkseg>
      <trkpt lat="46.25907" lon="5.99001">
        <ele>522.19</ele>
        <time>2015-09-02T15:28:00Z</time>
      </trkpt>
      <trkpt lat="46.25907" lon="5.99003">
        <ele>522.17</ele>
        <time>2015-09-02T15:28:03Z</time>
      </trkpt>
      <trkpt lat="46.25907" lon="5.99011">
        <ele>522.4</ele>
        <time>2015-09-02T15:28:07Z</time>
      </trkpt>
      <trkpt lat="46.25908" lon="5.99013">
        <ele>522.49</ele>
        <time>2015-09-02T15:28:08Z</time>
      </trkpt>
      <trkpt lat="46.25907" lon="5.99016">
        <ele>522.6</ele>
        <time>2015-09-02T15:28:09Z</time>
      </trkpt>
      <trkpt lat="46.25906" lon="5.99018">
        <ele>522.65</ele>
        <time>2015-09-02T15:28:10Z</time>
      </trkpt>
      <trkpt lat="46.25902" lon="5.99025">
        <ele>522.54</ele>
        <time>2015-09-02T15:28:12Z</time>
      </trkpt>
      <trkpt lat="46.25898" lon="5.99029">
        <ele>522.33</ele>
        <time>2015-09-02T15:28:13Z</time>
      </trkpt>
      <trkpt lat="46.25894" lon="5.99033">
        <ele>522.09</ele>
        <time>2015-09-02T15:28:14Z</time>
      </trkpt>
      <trkpt lat="46.2589" lon="5.99039">
        <ele>521.85</ele>
        <time>2015-09-02T15:28:15Z</time>
      </trkpt>
      <trkpt lat="46.25885" lon="5.99045">
        <ele>521.51</ele>
        <time>2015-09-02T15:28:16Z</time>
      </trkpt>
      <trkpt lat="46.25827" lon="5.99126">
        <ele>522.51</ele>
        <time>2015-09-02T15:28:27Z</time>
      </trkpt>
      <trkpt lat="46.25814" lon="5.99143">
        <ele>523.52</ele>
        <time>2015-09-02T15:28:29Z</time>
      </trkpt>
      <trkpt lat="46.25805" lon="5.99151">
        <ele>523.72</ele>
        <time>2015-09-02T15:28:30Z</time>
      </trkpt>
      <trkpt lat="46.25774" lon="5.99181">
        <ele>523.89</ele>
        <time>2015-09-02T15:28:34Z</time>
      </trkpt>
      <trkpt lat="46.25768" lon="5.99191">
        <ele>523.78</ele>
        <time>2015-09-02T15:28:35Z</time>
      </trkpt>
      <trkpt lat="46.25763" lon="5.99204">
        <ele>523.52</ele>
        <time>2015-09-02T15:28:36Z</time>
      </trkpt>
      <trkpt lat="46.25745" lon="5.99258">
        <ele>523.5</ele>
        <time>2015-09-02T15:28:40Z</time>
      </trkpt>
      <trkpt lat="46.25739" lon="5.99272">
        <ele>523.37</ele>
        <time>2015-09-02T15:28:41Z</time>
      </trkpt>
      <trkpt lat="46.25725" lon="5.99296">
        <ele>523.18</ele>
        <time>2015-09-02T15:28:43Z</time>
      </trkpt>
      <trkpt lat="46.2566" lon="5.99369">
        <ele>519.45</ele>
        <time>2015-09-02T15:28:50Z</time>
      </trkpt>
      <trkpt lat="46.25634" lon="5.99391">
        <ele>515.71</ele>
        <time>2015-09-02T15:28:53Z</time>
      </trkpt>
      <trkpt lat="46.25622" lon="5.99403">
        <ele>514.91</ele>
        <time>2015-09-02T15:28:55Z</time>
      </trkpt>
      <trkpt lat="46.25607" lon="5.99418">
        <ele>513.4</ele>
        <time>2015-09-02T15:28:58Z</time>
      </trkpt>
      <trkpt lat="46.25605" lon="5.99426">
        <ele>513.24</ele>
        <time>2015-09-02T15:28:59Z</time>
      </trkpt>
      <trkpt lat="46.25607" lon="5.99434">
        <ele>513.09</ele>
        <time>2015-09-02T15:29:00Z</time>
      </trkpt>
      <trkpt lat="46.2561" lon="5.99441">
        <ele>512.88</ele>
        <time>2015-09-02T15:29:01Z</time>
      </trkpt>
      <trkpt lat="46.25615" lon="5.99447">
        <ele>512.66</ele>
        <time>2015-09-02T15:29:02Z</time>
      </trkpt>
      <trkpt lat="46.2562" lon="5.99452">
        <ele>512.45</ele>
        <time>2015-09-02T15:29:03Z</time>
      </trkpt>
      <trkpt lat="46.25632" lon="5.99459">
        <ele>512.22</ele>
        <time>2015-09-02T15:29:05Z</time>
      </trkpt>
      <trkpt lat="46.25638" lon="5.99461">
        <ele>512.17</ele>
        <time>2015-09-02T15:29:06Z</time>
      </trkpt>
      <trkpt lat="46.25651" lon="5.99463">
        <ele>512.19</ele>
        <time>2015-09-02T15:29:08Z</time>
      </trkpt>
      <trkpt lat="46.25657" lon="5.99465">
        <ele>512.19</ele>
        <time>2015-09-02T15:29:09Z</time>
      </trkpt>
      <trkpt lat="46.25663" lon="5.99468">
        <ele>512.35</ele>
        <time>2015-09-02T15:29:10Z</time>
      </trkpt>
      <trkpt lat="46.25669" lon="5.99471">
        <ele>512.53</ele>
        <time>2015-09-02T15:29:11Z</time>
      </trkpt>
      <trkpt lat="46.25675" lon="5.99475">
        <ele>512.55</ele>
        <time>2015-09-02T15:29:12Z</time>
      </trkpt>
      <trkpt lat="46.25709" lon="5.99505">
        <ele>512.96</ele>
        <time>2015-09-02T15:29:18Z</time>
      </trkpt>
      <trkpt lat="46.25714" lon="5.9951">
        <ele>513.05</ele>
        <time>2015-09-02T15:29:19Z</time>
      </trkpt>
      <trkpt lat="46.2579" lon="5.99582">
        <ele>514.38</ele>
        <time>2015-09-02T15:29:33Z</time>
      </trkpt>
      <trkpt lat="46.25867" lon="5.99624">
        <ele>516.88</ele>
        <time>2015-09-02T15:29:47Z</time>
      </trkpt>
      <trkpt lat="46.25896" lon="5.99643">
        <ele>518.41</ele>
        <time>2015-09-02T15:29:53Z</time>
      </trkpt>
      <trkpt lat="46.25979" lon="5.99715">
        <ele>519.31</ele>
        <time>2015-09-02T15:30:09Z</time>
      </trkpt>
      <trkpt lat="46.2599" lon="5.99722">
        <ele>519.41</ele>
        <time>2015-09-02T15:30:11Z</time>
      </trkpt>
      <trkpt lat="46.25996" lon="5.99725">
        <ele>519.57</ele>
        <time>2015-09-02T15:30:12Z</time>
      </trkpt>
      <trkpt lat="46.26047" lon="5.99764">
        <ele>519.01</ele>
        <time>2015-09-02T15:30:21Z</time>
      </trkpt>
      <trkpt lat="46.26059" lon="5.99774">
        <ele>519.08</ele>
        <time>2015-09-02T15:30:23Z</time>
      </trkpt>
      <trkpt lat="46.26156" lon="5.9982">
        <ele>517.34</ele>
        <time>2015-09-02T15:30:38Z</time>
      </trkpt>
      <trkpt lat="46.26242" lon="5.99889">
        <ele>518.93</ele>
        <time>2015-09-02T15:30:53Z</time>
      </trkpt>
      <trkpt lat="46.26323" lon="5.99968">
        <ele>522.1</ele>
        <time>2015-09-02T15:31:09Z</time>
      </trkpt>
      <trkpt lat="46.2639" lon="6.00039">
        <ele>525.12</ele>
        <time>2015-09-02T15:31:24Z</time>
      </trkpt>
      <trkpt lat="46.2648" lon="6.0013">
        <ele>527.54</ele>
        <time>2015-09-02T15:31:44Z</time>
      </trkpt>
      <trkpt lat="46.26582" lon="6.00215">
        <ele>527.81</ele>
        <time>2015-09-02T15:32:04Z</time>
      </trkpt>
      <trkpt lat="46.26603" lon="6.00228">
        <ele>527.79</ele>
        <time>2015-09-02T15:32:08Z</time>
      </trkpt>
      <trkpt lat="46.26608" lon="6.00231">
        <ele>527.82</ele>
        <time>2015-09-02T15:32:09Z</time>
      </trkpt>
      <trkpt lat="46.26706" lon="6.0029">
        <ele>529.18</ele>
        <time>2015-09-02T15:32:27Z</time>
      </trkpt>
      <trkpt lat="46.26721" lon="6.00303">
        <ele>529.02</ele>
        <time>2015-09-02T15:32:30Z</time>
      </trkpt>
      <trkpt lat="46.26726" lon="6.00307">
        <ele>528.94</ele>
        <time>2015-09-02T15:32:31Z</time>
      </trkpt>
      <trkpt lat="46.26846" lon="6.00415">
        <ele>530.84</ele>
        <time>2015-09-02T15:32:55Z</time>
      </trkpt>
      <trkpt lat="46.26886" lon="6.00445">
        <ele>531.98</ele>
        <time>2015-09-02T15:33:03Z</time>
      </trkpt>
      <trkpt lat="46.2698" lon="6.00502">
        <ele>534.67</ele>
        <time>2015-09-02T15:33:22Z</time>
      </trkpt>
      <trkpt lat="46.27019" lon="6.00536">
        <ele>535.92</ele>
        <time>2015-09-02T15:33:31Z</time>
      </trkpt>
      <trkpt lat="46.27022" lon="6.00541">
        <ele>536.1</ele>
        <time>2015-09-02T15:33:32Z</time>
      </trkpt>
      <trkpt lat="46.27025" lon="6.00546">
        <ele>536.29</ele>
        <time>2015-09-02T15:33:33Z</time>
      </trkpt>
      <trkpt lat="46.27037" lon="6.00568">
        <ele>536.8</ele>
        <time>2015-09-02T15:33:37Z</time>
      </trkpt>
      <trkpt lat="46.27039" lon="6.00574">
        <ele>537.21</ele>
        <time>2015-09-02T15:33:38Z</time>
      </trkpt>
      <trkpt lat="46.27042" lon="6.0058">
        <ele>537.6</ele>
        <time>2015-09-02T15:33:39Z</time>
      </trkpt>
      <trkpt lat="46.27052" lon="6.00609">
        <ele>538.15</ele>
        <time>2015-09-02T15:33:43Z</time>
      </trkpt>
      <trkpt lat="46.27075" lon="6.00688">
        <ele>538.67</ele>
        <time>2015-09-02T15:33:53Z</time>
      </trkpt>
      <trkpt lat="46.27129" lon="6.00812">
        <ele>537.72</ele>
        <time>2015-09-02T15:34:08Z</time>
      </trkpt>
      <trkpt lat="46.27199" lon="6.00943">
        <ele>538.31</ele>
        <time>2015-09-02T15:34:26Z</time>
      </trkpt>
      <trkpt lat="46.27279" lon="6.01017">
        <ele>538.12</ele>
        <time>2015-09-02T15:34:41Z</time>
      </trkpt>
      <trkpt lat="46.27368" lon="6.01114">
        <ele>535.99</ele>
        <time>2015-09-02T15:34:56Z</time>
      </trkpt>
      <trkpt lat="46.27456" lon="6.0117">
        <ele>538.45</ele>
        <time>2015-09-02T15:35:12Z</time>
      </trkpt>
      <trkpt lat="46.27522" lon="6.01205">
        <ele>539.29</ele>
        <time>2015-09-02T15:35:27Z</time>
      </trkpt>
      <trkpt lat="46.27525" lon="6.01212">
        <ele>539.39</ele>
        <time>2015-09-02T15:35:30Z</time>
      </trkpt>
      <trkpt lat="46.27527" lon="6.01214">
        <ele>539.45</ele>
        <time>2015-09-02T15:35:31Z</time>
      </trkpt>
      <trkpt lat="46.27529" lon="6.01214">
        <ele>539.48</ele>
        <time>2015-09-02T15:35:32Z</time>
      </trkpt>
      <trkpt lat="46.27546" lon="6.01213">
        <ele>540.06</ele>
        <time>2015-09-02T15:35:41Z</time>
      </trkpt>
      <trkpt lat="46.27554" lon="6.01216">
        <ele>540.16</ele>
        <time>2015-09-02T15:35:43Z</time>
      </trkpt>
      <trkpt lat="46.27558" lon="6.01219">
        <ele>540.26</ele>
        <time>2015-09-02T15:35:44Z</time>
      </trkpt>
      <trkpt lat="46.27562" lon="6.01221">
        <ele>540.33</ele>
        <time>2015-09-02T15:35:45Z</time>
      </trkpt>
      <trkpt lat="46.27566" lon="6.01223">
        <ele>540.33</ele>
        <time>2015-09-02T15:35:46Z</time>
      </trkpt>
      <trkpt lat="46.27571" lon="6.01225">
        <ele>540.34</ele>
        <time>2015-09-02T15:35:47Z</time>
      </trkpt>
      <trkpt lat="46.27679" lon="6.01287">
        <ele>542.2</ele>
        <time>2015-09-02T15:36:07Z</time>
      </trkpt>
      <trkpt lat="46.27791" lon="6.0136">
        <ele>542.94</ele>
        <time>2015-09-02T15:36:27Z</time>
      </trkpt>
      <trkpt lat="46.27826" lon="6.01389">
        <ele>543.77</ele>
        <time>2015-09-02T15:36:34Z</time>
      </trkpt>
      <trkpt lat="46.27831" lon="6.01393">
        <ele>543.99</ele>
        <time>2015-09-02T15:36:35Z</time>
      </trkpt>
      <trkpt lat="46.27836" lon="6.01397">
        <ele>544.28</ele>
        <time>2015-09-02T15:36:36Z</time>
      </trkpt>
      <trkpt lat="46.27903" lon="6.01438">
        <ele>545.49</ele>
        <time>2015-09-02T15:36:49Z</time>
      </trkpt>
      <trkpt lat="46.27919" lon="6.01444">
        <ele>546.27</ele>
        <time>2015-09-02T15:36:52Z</time>
      </trkpt>
      <trkpt lat="46.28006" lon="6.01512">
        <ele>547.83</ele>
        <time>2015-09-02T15:37:09Z</time>
      </trkpt>
      <trkpt lat="46.28101" lon="6.01585">
        <ele>547.01</ele>
        <time>2015-09-02T15:37:25Z</time>
      </trkpt>
      <trkpt lat="46.28113" lon="6.01595">
        <ele>546.8</ele>
        <time>2015-09-02T15:37:27Z</time>
      </trkpt>
      <trkpt lat="46.28118" lon="6.016">
        <ele>546.75</ele>
        <time>2015-09-02T15:37:28Z</time>
      </trkpt>
      <trkpt lat="46.28124" lon="6.01605">
        <ele>546.78</ele>
        <time>2015-09-02T15:37:29Z</time>
      </trkpt>
      <trkpt lat="46.2817" lon="6.01668">
        <ele>546.9</ele>
        <time>2015-09-02T15:37:39Z</time>
      </trkpt>
      <trkpt lat="46.28174" lon="6.01675">
        <ele>547.03</ele>
        <time>2015-09-02T15:37:40Z</time>
      </trkpt>
      <trkpt lat="46.28233" lon="6.01777">
        <ele>547.34</ele>
        <time>2015-09-02T15:37:55Z</time>
      </trkpt>
      <trkpt lat="46.2826" lon="6.01812">
        <ele>547.47</ele>
        <time>2015-09-02T15:38:01Z</time>
      </trkpt>
      <trkpt lat="46.28272" lon="6.01819">
        <ele>547.68</ele>
        <time>2015-09-02T15:38:03Z</time>
      </trkpt>
      <trkpt lat="46.28277" lon="6.01822">
        <ele>547.73</ele>
        <time>2015-09-02T15:38:04Z</time>
      </trkpt>
      <trkpt lat="46.28304" lon="6.01841">
        <ele>547.93</ele>
        <time>2015-09-02T15:38:09Z</time>
      </trkpt>
      <trkpt lat="46.28315" lon="6.0185">
        <ele>548.03</ele>
        <time>2015-09-02T15:38:11Z</time>
      </trkpt>
      <trkpt lat="46.28401" lon="6.01913">
        <ele>550.04</ele>
        <time>2015-09-02T15:38:27Z</time>
      </trkpt>
      <trkpt lat="46.2848" lon="6.01962">
        <ele>551.93</ele>
        <time>2015-09-02T15:38:43Z</time>
      </trkpt>
      <trkpt lat="46.28532" lon="6.02001">
        <ele>554.99</ele>
        <time>2015-09-02T15:38:55Z</time>
      </trkpt>
      <trkpt lat="46.28602" lon="6.02051">
        <ele>556.9</ele>
        <time>2015-09-02T15:39:11Z</time>
      </trkpt>
      <trkpt lat="46.28657" lon="6.02097">
        <ele>556.92</ele>
        <time>2015-09-02T15:39:22Z</time>
      </trkpt>
      <trkpt lat="46.28719" lon="6.02165">
        <ele>557.44</ele>
        <time>2015-09-02T15:39:35Z</time>
      </trkpt>
      <trkpt lat="46.28724" lon="6.02171">
        <ele>557.45</ele>
        <time>2015-09-02T15:39:36Z</time>
      </trkpt>
      <trkpt lat="46.28805" lon="6.02279">
        <ele>558.68</ele>
        <time>2015-09-02T15:39:55Z</time>
      </trkpt>
      <trkpt lat="46.28872" lon="6.02318">
        <ele>559.76</ele>
        <time>2015-09-02T15:40:08Z</time>
      </trkpt>
      <trkpt lat="46.28948" lon="6.02388">
        <ele>561.54</ele>
        <time>2015-09-02T15:40:24Z</time>
      </trkpt>
      <trkpt lat="46.29025" lon="6.02456">
        <ele>563.77</ele>
        <time>2015-09-02T15:40:41Z</time>
      </trkpt>
      <trkpt lat="46.29136" lon="6.02551">
        <ele>565.72</ele>
        <time>2015-09-02T15:41:04Z</time>
      </trkpt>
      <trkpt lat="46.2916" lon="6.0257">
        <ele>566.27</ele>
        <time>2015-09-02T15:41:09Z</time>
      </trkpt>
      <trkpt lat="46.2917" lon="6.02578">
        <ele>566.49</ele>
        <time>2015-09-02T15:41:11Z</time>
      </trkpt>
      <trkpt lat="46.29227" lon="6.02631">
        <ele>567.79</ele>
        <time>2015-09-02T15:41:23Z</time>
      </trkpt>
      <trkpt lat="46.29271" lon="6.02721">
        <ele>566.23</ele>
        <time>2015-09-02T15:41:34Z</time>
      </trkpt>
      <trkpt lat="46.29277" lon="6.02729">
        <ele>566.14</ele>
        <time>2015-09-02T15:41:35Z</time>
      </trkpt>
      <trkpt lat="46.29285" lon="6.02736">
        <ele>566.07</ele>
        <time>2015-09-02T15:41:36Z</time>
      </trkpt>
      <trkpt lat="46.29293" lon="6.02742">
        <ele>565.93</ele>
        <time>2015-09-02T15:41:37Z</time>
      </trkpt>
      <trkpt lat="46.29302" lon="6.02745">
        <ele>565.5</ele>
        <time>2015-09-02T15:41:38Z</time>
      </trkpt>
      <trkpt lat="46.29311" lon="6.02748">
        <ele>564.78</ele>
        <time>2015-09-02T15:41:39Z</time>
      </trkpt>
      <trkpt lat="46.29331" lon="6.02755">
        <ele>563.06</ele>
        <time>2015-09-02T15:41:41Z</time>
      </trkpt>
      <trkpt lat="46.2934" lon="6.0276">
        <ele>562</ele>
        <time>2015-09-02T15:41:42Z</time>
      </trkpt>
      <trkpt lat="46.29349" lon="6.02768">
        <ele>561.41</ele>
        <time>2015-09-02T15:41:43Z</time>
      </trkpt>
      <trkpt lat="46.29364" lon="6.02786">
        <ele>560.57</ele>
        <time>2015-09-02T15:41:45Z</time>
      </trkpt>
      <trkpt lat="46.29402" lon="6.02847">
        <ele>560.42</ele>
        <time>2015-09-02T15:41:52Z</time>
      </trkpt>
      <trkpt lat="46.29407" lon="6.02853">
        <ele>560.85</ele>
        <time>2015-09-02T15:41:53Z</time>
      </trkpt>
      <trkpt lat="46.29413" lon="6.02857">
        <ele>561.39</ele>
        <time>2015-09-02T15:41:54Z</time>
      </trkpt>
      <trkpt lat="46.2942" lon="6.02861">
        <ele>561.85</ele>
        <time>2015-09-02T15:41:55Z</time>
      </trkpt>
      <trkpt lat="46.29426" lon="6.02864">
        <ele>562.08</ele>
        <time>2015-09-02T15:41:56Z</time>
      </trkpt>
      <trkpt lat="46.2944" lon="6.02869">
        <ele>562.35</ele>
        <time>2015-09-02T15:41:58Z</time>
      </trkpt>
      <trkpt lat="46.29461" lon="6.02876">
        <ele>562.33</ele>
        <time>2015-09-02T15:42:01Z</time>
      </trkpt>
      <trkpt lat="46.29484" lon="6.02883">
        <ele>561.97</ele>
        <time>2015-09-02T15:42:04Z</time>
      </trkpt>
      <trkpt lat="46.29491" lon="6.02884">
        <ele>561.91</ele>
        <time>2015-09-02T15:42:05Z</time>
      </trkpt>
      <trkpt lat="46.29499" lon="6.02884">
        <ele>561.88</ele>
        <time>2015-09-02T15:42:06Z</time>
      </trkpt>
      <trkpt lat="46.29507" lon="6.02882">
        <ele>561.99</ele>
        <time>2015-09-02T15:42:07Z</time>
      </trkpt>
      <trkpt lat="46.29514" lon="6.0288">
        <ele>561.91</ele>
        <time>2015-09-02T15:42:08Z</time>
      </trkpt>
      <trkpt lat="46.29521" lon="6.02877">
        <ele>561.87</ele>
        <time>2015-09-02T15:42:09Z</time>
      </trkpt>
      <trkpt lat="46.29555" lon="6.02867">
        <ele>561.8</ele>
        <time>2015-09-02T15:42:14Z</time>
      </trkpt>
      <trkpt lat="46.29562" lon="6.02864">
        <ele>561.78</ele>
        <time>2015-09-02T15:42:15Z</time>
      </trkpt>
      <trkpt lat="46.29569" lon="6.02861">
        <ele>561.68</ele>
        <time>2015-09-02T15:42:16Z</time>
      </trkpt>
      <trkpt lat="46.29607" lon="6.02847">
        <ele>561.11</ele>
        <time>2015-09-02T15:42:21Z</time>
      </trkpt>
      <trkpt lat="46.29623" lon="6.02842">
        <ele>560.6</ele>
        <time>2015-09-02T15:42:23Z</time>
      </trkpt>
      <trkpt lat="46.29639" lon="6.02838">
        <ele>559.58</ele>
        <time>2015-09-02T15:42:25Z</time>
      </trkpt>
      <trkpt lat="46.29648" lon="6.0284">
        <ele>559.05</ele>
        <time>2015-09-02T15:42:26Z</time>
      </trkpt>
      <trkpt lat="46.29662" lon="6.02853">
        <ele>558.26</ele>
        <time>2015-09-02T15:42:28Z</time>
      </trkpt>
      <trkpt lat="46.29665" lon="6.02864">
        <ele>557.89</ele>
        <time>2015-09-02T15:42:29Z</time>
      </trkpt>
      <trkpt lat="46.29666" lon="6.02875">
        <ele>557.63</ele>
        <time>2015-09-02T15:42:30Z</time>
      </trkpt>
      <trkpt lat="46.29666" lon="6.02886">
        <ele>557.5</ele>
        <time>2015-09-02T15:42:31Z</time>
      </trkpt>
      <trkpt lat="46.29664" lon="6.02897">
        <ele>557.4</ele>
        <time>2015-09-02T15:42:32Z</time>
      </trkpt>
      <trkpt lat="46.2966" lon="6.02907">
        <ele>557.25</ele>
        <time>2015-09-02T15:42:33Z</time>
      </trkpt>
      <trkpt lat="46.29655" lon="6.02915">
        <ele>557.24</ele>
        <time>2015-09-02T15:42:34Z</time>
      </trkpt>
      <trkpt lat="46.29649" lon="6.0292">
        <ele>557.26</ele>
        <time>2015-09-02T15:42:35Z</time>
      </trkpt>
      <trkpt lat="46.29644" lon="6.02926">
        <ele>557.43</ele>
        <time>2015-09-02T15:42:36Z</time>
      </trkpt>
      <trkpt lat="46.29639" lon="6.02931">
        <ele>557.84</ele>
        <time>2015-09-02T15:42:37Z</time>
      </trkpt>
      <trkpt lat="46.29634" lon="6.02936">
        <ele>558.05</ele>
        <time>2015-09-02T15:42:38Z</time>
      </trkpt>
      <trkpt lat="46.29611" lon="6.02958">
        <ele>559.44</ele>
        <time>2015-09-02T15:42:43Z</time>
      </trkpt>
      <trkpt lat="46.29587" lon="6.02984">
        <ele>562.33</ele>
        <time>2015-09-02T15:42:49Z</time>
      </trkpt>
      <trkpt lat="46.2956" lon="6.03002">
        <ele>563.56</ele>
        <time>2015-09-02T15:42:57Z</time>
      </trkpt>
      <trkpt lat="46.29557" lon="6.03004">
        <ele>563.71</ele>
        <time>2015-09-02T15:42:58Z</time>
      </trkpt>
      <trkpt lat="46.29554" lon="6.03006">
        <ele>563.86</ele>
        <time>2015-09-02T15:42:59Z</time>
      </trkpt>
      <trkpt lat="46.29551" lon="6.03009">
        <ele>564.05</ele>
        <time>2015-09-02T15:43:00Z</time>
      </trkpt>
      <trkpt lat="46.29548" lon="6.03013">
        <ele>564.32</ele>
        <time>2015-09-02T15:43:01Z</time>
      </trkpt>
      <trkpt lat="46.29546" lon="6.03017">
        <ele>564.49</ele>
        <time>2015-09-02T15:43:02Z</time>
      </trkpt>
      <trkpt lat="46.29544" lon="6.03022">
        <ele>564.78</ele>
        <time>2015-09-02T15:43:03Z</time>
      </trkpt>
      <trkpt lat="46.29543" lon="6.03033">
        <ele>565.51</ele>
        <time>2015-09-02T15:43:05Z</time>
      </trkpt>
      <trkpt lat="46.29544" lon="6.03038">
        <ele>565.82</ele>
        <time>2015-09-02T15:43:06Z</time>
      </trkpt>
      <trkpt lat="46.29546" lon="6.03043">
        <ele>566.07</ele>
        <time>2015-09-02T15:43:07Z</time>
      </trkpt>
      <trkpt lat="46.29548" lon="6.03047">
        <ele>566.22</ele>
        <time>2015-09-02T15:43:08Z</time>
      </trkpt>
      <trkpt lat="46.29551" lon="6.03051">
        <ele>566.49</ele>
        <time>2015-09-02T15:43:09Z</time>
      </trkpt>
      <trkpt lat="46.29554" lon="6.03054">
        <ele>566.95</ele>
        <time>2015-09-02T15:43:10Z</time>
      </trkpt>
      <trkpt lat="46.29561" lon="6.03059">
        <ele>567.62</ele>
        <time>2015-09-02T15:43:12Z</time>
      </trkpt>
      <trkpt lat="46.29565" lon="6.0306">
        <ele>567.81</ele>
        <time>2015-09-02T15:43:13Z</time>
      </trkpt>
      <trkpt lat="46.29568" lon="6.03062">
        <ele>567.92</ele>
        <time>2015-09-02T15:43:14Z</time>
      </trkpt>
      <trkpt lat="46.29572" lon="6.03064">
        <ele>568.03</ele>
        <time>2015-09-02T15:43:15Z</time>
      </trkpt>
      <trkpt lat="46.29576" lon="6.03066">
        <ele>568.1</ele>
        <time>2015-09-02T15:43:16Z</time>
      </trkpt>
      <trkpt lat="46.2958" lon="6.03069">
        <ele>568.26</ele>
        <time>2015-09-02T15:43:17Z</time>
      </trkpt>
      <trkpt lat="46.29584" lon="6.03071">
        <ele>568.4</ele>
        <time>2015-09-02T15:43:18Z</time>
      </trkpt>
      <trkpt lat="46.29587" lon="6.03073">
        <ele>568.5</ele>
        <time>2015-09-02T15:43:19Z</time>
      </trkpt>
      <trkpt lat="46.29591" lon="6.03076">
        <ele>568.54</ele>
        <time>2015-09-02T15:43:20Z</time>
      </trkpt>
      <trkpt lat="46.29595" lon="6.03078">
        <ele>568.63</ele>
        <time>2015-09-02T15:43:21Z</time>
      </trkpt>
      <trkpt lat="46.29599" lon="6.03081">
        <ele>568.78</ele>
        <time>2015-09-02T15:43:22Z</time>
      </trkpt>
      <trkpt lat="46.29606" lon="6.03089">
        <ele>569.06</ele>
        <time>2015-09-02T15:43:24Z</time>
      </trkpt>
      <trkpt lat="46.29642" lon="6.03145">
        <ele>568.37</ele>
        <time>2015-09-02T15:43:34Z</time>
      </trkpt>
      <trkpt lat="46.29665" lon="6.03186">
        <ele>568.54</ele>
        <time>2015-09-02T15:43:40Z</time>
      </trkpt>
      <trkpt lat="46.29668" lon="6.03193">
        <ele>568.67</ele>
        <time>2015-09-02T15:43:41Z</time>
      </trkpt>
      <trkpt lat="46.29675" lon="6.03214">
        <ele>568.31</ele>
        <time>2015-09-02T15:43:44Z</time>
      </trkpt>
      <trkpt lat="46.29676" lon="6.03222">
        <ele>568.49</ele>
        <time>2015-09-02T15:43:45Z</time>
      </trkpt>
      <trkpt lat="46.29675" lon="6.03237">
        <ele>569.2</ele>
        <time>2015-09-02T15:43:47Z</time>
      </trkpt>
      <trkpt lat="46.29672" lon="6.03244">
        <ele>569.17</ele>
        <time>2015-09-02T15:43:48Z</time>
      </trkpt>
      <trkpt lat="46.29662" lon="6.03272">
        <ele>569.33</ele>
        <time>2015-09-02T15:43:52Z</time>
      </trkpt>
      <trkpt lat="46.2966" lon="6.0328">
        <ele>569.28</ele>
        <time>2015-09-02T15:43:53Z</time>
      </trkpt>
      <trkpt lat="46.29659" lon="6.03288">
        <ele>569.38</ele>
        <time>2015-09-02T15:43:54Z</time>
      </trkpt>
      <trkpt lat="46.29659" lon="6.03296">
        <ele>569.49</ele>
        <time>2015-09-02T15:43:55Z</time>
      </trkpt>
      <trkpt lat="46.29659" lon="6.03305">
        <ele>569.55</ele>
        <time>2015-09-02T15:43:56Z</time>
      </trkpt>
      <trkpt lat="46.2966" lon="6.03313">
        <ele>569.57</ele>
        <time>2015-09-02T15:43:57Z</time>
      </trkpt>
      <trkpt lat="46.29679" lon="6.03459">
        <ele>566.26</ele>
        <time>2015-09-02T15:44:11Z</time>
      </trkpt>
      <trkpt lat="46.2968" lon="6.03472">
        <ele>565.74</ele>
        <time>2015-09-02T15:44:12Z</time>
      </trkpt>
      <trkpt lat="46.29683" lon="6.03486">
        <ele>565.26</ele>
        <time>2015-09-02T15:44:13Z</time>
      </trkpt>
      <trkpt lat="46.29686" lon="6.035">
        <ele>564.85</ele>
        <time>2015-09-02T15:44:14Z</time>
      </trkpt>
      <trkpt lat="46.29691" lon="6.03514">
        <ele>564.11</ele>
        <time>2015-09-02T15:44:15Z</time>
      </trkpt>
      <trkpt lat="46.29697" lon="6.03527">
        <ele>562.91</ele>
        <time>2015-09-02T15:44:16Z</time>
      </trkpt>
      <trkpt lat="46.29703" lon="6.0354">
        <ele>561.84</ele>
        <time>2015-09-02T15:44:17Z</time>
      </trkpt>
      <trkpt lat="46.29711" lon="6.03552">
        <ele>561.16</ele>
        <time>2015-09-02T15:44:18Z</time>
      </trkpt>
      <trkpt lat="46.29741" lon="6.03605">
        <ele>557.23</ele>
        <time>2015-09-02T15:44:22Z</time>
      </trkpt>
      <trkpt lat="46.29746" lon="6.0362">
        <ele>556.51</ele>
        <time>2015-09-02T15:44:23Z</time>
      </trkpt>
      <trkpt lat="46.29749" lon="6.03635">
        <ele>556.07</ele>
        <time>2015-09-02T15:44:24Z</time>
      </trkpt>
      <trkpt lat="46.29752" lon="6.0365">
        <ele>555.78</ele>
        <time>2015-09-02T15:44:25Z</time>
      </trkpt>
      <trkpt lat="46.29753" lon="6.03666">
        <ele>555.63</ele>
        <time>2015-09-02T15:44:26Z</time>
      </trkpt>
      <trkpt lat="46.29757" lon="6.03695">
        <ele>555.41</ele>
        <time>2015-09-02T15:44:28Z</time>
      </trkpt>
      <trkpt lat="46.2976" lon="6.03709">
        <ele>555.38</ele>
        <time>2015-09-02T15:44:29Z</time>
      </trkpt>
      <trkpt lat="46.29764" lon="6.03722">
        <ele>555.36</ele>
        <time>2015-09-02T15:44:30Z</time>
      </trkpt>
      <trkpt lat="46.29786" lon="6.03781">
        <ele>555.33</ele>
        <time>2015-09-02T15:44:35Z</time>
      </trkpt>
      <trkpt lat="46.29825" lon="6.0386">
        <ele>555.75</ele>
        <time>2015-09-02T15:44:43Z</time>
      </trkpt>
      <trkpt lat="46.2983" lon="6.0387">
        <ele>555.96</ele>
        <time>2015-09-02T15:44:44Z</time>
      </trkpt>
      <trkpt lat="46.29842" lon="6.039">
        <ele>556.55</ele>
        <time>2015-09-02T15:44:47Z</time>
      </trkpt>
      <trkpt lat="46.29845" lon="6.03911">
        <ele>556.62</ele>
        <time>2015-09-02T15:44:48Z</time>
      </trkpt>
      <trkpt lat="46.29847" lon="6.03922">
        <ele>556.54</ele>
        <time>2015-09-02T15:44:49Z</time>
      </trkpt>
      <trkpt lat="46.29861" lon="6.04008">
        <ele>556.61</ele>
        <time>2015-09-02T15:44:57Z</time>
      </trkpt>
      <trkpt lat="46.2987" lon="6.04038">
        <ele>556.66</ele>
        <time>2015-09-02T15:45:00Z</time>
      </trkpt>
      <trkpt lat="46.29891" lon="6.04082">
        <ele>556.51</ele>
        <time>2015-09-02T15:45:05Z</time>
      </trkpt>
      <trkpt lat="46.29896" lon="6.0409">
        <ele>556.59</ele>
        <time>2015-09-02T15:45:06Z</time>
      </trkpt>
      <trkpt lat="46.29902" lon="6.04096">
        <ele>556.63</ele>
        <time>2015-09-02T15:45:07Z</time>
      </trkpt>
      <trkpt lat="46.29914" lon="6.04108">
        <ele>556.74</ele>
        <time>2015-09-02T15:45:09Z</time>
      </trkpt>
      <trkpt lat="46.2992" lon="6.04114">
        <ele>556.75</ele>
        <time>2015-09-02T15:45:10Z</time>
      </trkpt>
      <trkpt lat="46.29956" lon="6.04136">
        <ele>556.63</ele>
        <time>2015-09-02T15:45:15Z</time>
      </trkpt>
      <trkpt lat="46.29964" lon="6.04138">
        <ele>556.38</ele>
        <time>2015-09-02T15:45:16Z</time>
      </trkpt>
      <trkpt lat="46.29972" lon="6.04139">
        <ele>556.13</ele>
        <time>2015-09-02T15:45:17Z</time>
      </trkpt>
      <trkpt lat="46.2998" lon="6.04137">
        <ele>555.55</ele>
        <time>2015-09-02T15:45:18Z</time>
      </trkpt>
      <trkpt lat="46.29996" lon="6.0413">
        <ele>555.38</ele>
        <time>2015-09-02T15:45:20Z</time>
      </trkpt>
      <trkpt lat="46.30002" lon="6.04123">
        <ele>555.26</ele>
        <time>2015-09-02T15:45:21Z</time>
      </trkpt>
      <trkpt lat="46.30047" lon="6.04075">
        <ele>553.95</ele>
        <time>2015-09-02T15:45:28Z</time>
      </trkpt>
      <trkpt lat="46.30067" lon="6.0406">
        <ele>553.94</ele>
        <time>2015-09-02T15:45:31Z</time>
      </trkpt>
      <trkpt lat="46.30075" lon="6.04057">
        <ele>553.99</ele>
        <time>2015-09-02T15:45:32Z</time>
      </trkpt>
      <trkpt lat="46.30097" lon="6.04057">
        <ele>554.39</ele>
        <time>2015-09-02T15:45:35Z</time>
      </trkpt>
      <trkpt lat="46.30116" lon="6.04076">
        <ele>554.45</ele>
        <time>2015-09-02T15:45:38Z</time>
      </trkpt>
      <trkpt lat="46.30158" lon="6.04142">
        <ele>554.63</ele>
        <time>2015-09-02T15:45:46Z</time>
      </trkpt>
      <trkpt lat="46.30164" lon="6.0415">
        <ele>554.74</ele>
        <time>2015-09-02T15:45:47Z</time>
      </trkpt>
      <trkpt lat="46.30229" lon="6.0423">
        <ele>556.21</ele>
        <time>2015-09-02T15:45:59Z</time>
      </trkpt>
      <trkpt lat="46.30271" lon="6.04271">
        <ele>557.8</ele>
        <time>2015-09-02T15:46:07Z</time>
      </trkpt>
      <trkpt lat="46.30277" lon="6.04275">
        <ele>557.8</ele>
        <time>2015-09-02T15:46:08Z</time>
      </trkpt>
      <trkpt lat="46.30301" lon="6.04286">
        <ele>557.91</ele>
        <time>2015-09-02T15:46:12Z</time>
      </trkpt>
      <trkpt lat="46.3039" lon="6.04319">
        <ele>558.71</ele>
        <time>2015-09-02T15:46:26Z</time>
      </trkpt>
      <trkpt lat="46.30517" lon="6.04375">
        <ele>558.81</ele>
        <time>2015-09-02T15:46:45Z</time>
      </trkpt>
      <trkpt lat="46.30599" lon="6.04413">
        <ele>557.87</ele>
        <time>2015-09-02T15:46:57Z</time>
      </trkpt>
      <trkpt lat="46.30638" lon="6.04431">
        <ele>558.03</ele>
        <time>2015-09-02T15:47:03Z</time>
      </trkpt>
      <trkpt lat="46.30644" lon="6.04434">
        <ele>558.06</ele>
        <time>2015-09-02T15:47:04Z</time>
      </trkpt>
      <trkpt lat="46.30694" lon="6.04456">
        <ele>557.39</ele>
        <time>2015-09-02T15:47:11Z</time>
      </trkpt>
      <trkpt lat="46.3071" lon="6.04461">
        <ele>557.04</ele>
        <time>2015-09-02T15:47:13Z</time>
      </trkpt>
      <trkpt lat="46.30735" lon="6.04467">
        <ele>556</ele>
        <time>2015-09-02T15:47:16Z</time>
      </trkpt>
      <trkpt lat="46.30743" lon="6.04466">
        <ele>555.56</ele>
        <time>2015-09-02T15:47:17Z</time>
      </trkpt>
      <trkpt lat="46.30786" lon="6.04461">
        <ele>554.67</ele>
        <time>2015-09-02T15:47:22Z</time>
      </trkpt>
      <trkpt lat="46.30794" lon="6.0446">
        <ele>554.48</ele>
        <time>2015-09-02T15:47:23Z</time>
      </trkpt>
      <trkpt lat="46.30802" lon="6.04461">
        <ele>554.23</ele>
        <time>2015-09-02T15:47:24Z</time>
      </trkpt>
      <trkpt lat="46.30811" lon="6.04464">
        <ele>554.18</ele>
        <time>2015-09-02T15:47:25Z</time>
      </trkpt>
      <trkpt lat="46.30819" lon="6.04468">
        <ele>554.16</ele>
        <time>2015-09-02T15:47:26Z</time>
      </trkpt>
      <trkpt lat="46.30826" lon="6.04472">
        <ele>554.04</ele>
        <time>2015-09-02T15:47:27Z</time>
      </trkpt>
      <trkpt lat="46.30833" lon="6.04477">
        <ele>554.04</ele>
        <time>2015-09-02T15:47:28Z</time>
      </trkpt>
      <trkpt lat="46.3084" lon="6.04483">
        <ele>554.11</ele>
        <time>2015-09-02T15:47:29Z</time>
      </trkpt>
      <trkpt lat="46.30846" lon="6.0449">
        <ele>554.17</ele>
        <time>2015-09-02T15:47:30Z</time>
      </trkpt>
      <trkpt lat="46.30852" lon="6.04497">
        <ele>554.29</ele>
        <time>2015-09-02T15:47:31Z</time>
      </trkpt>
      <trkpt lat="46.30858" lon="6.04505">
        <ele>554.28</ele>
        <time>2015-09-02T15:47:32Z</time>
      </trkpt>
      <trkpt lat="46.30913" lon="6.04599">
        <ele>557.8</ele>
        <time>2015-09-02T15:47:44Z</time>
      </trkpt>
      <trkpt lat="46.30991" lon="6.04722">
        <ele>559.17</ele>
        <time>2015-09-02T15:48:02Z</time>
      </trkpt>
      <trkpt lat="46.31042" lon="6.04823">
        <ele>559.14</ele>
        <time>2015-09-02T15:48:15Z</time>
      </trkpt>
      <trkpt lat="46.31047" lon="6.0483">
        <ele>559.11</ele>
        <time>2015-09-02T15:48:16Z</time>
      </trkpt>
      <trkpt lat="46.31072" lon="6.04866">
        <ele>559.59</ele>
        <time>2015-09-02T15:48:22Z</time>
      </trkpt>
      <trkpt lat="46.31077" lon="6.0487">
        <ele>560.02</ele>
        <time>2015-09-02T15:48:23Z</time>
      </trkpt>
      <trkpt lat="46.31082" lon="6.04874">
        <ele>560.32</ele>
        <time>2015-09-02T15:48:24Z</time>
      </trkpt>
      <trkpt lat="46.31086" lon="6.04877">
        <ele>560.47</ele>
        <time>2015-09-02T15:48:25Z</time>
      </trkpt>
      <trkpt lat="46.31091" lon="6.0488">
        <ele>560.55</ele>
        <time>2015-09-02T15:48:26Z</time>
      </trkpt>
      <trkpt lat="46.31096" lon="6.04881">
        <ele>560.58</ele>
        <time>2015-09-02T15:48:27Z</time>
      </trkpt>
      <trkpt lat="46.311" lon="6.04883">
        <ele>560.63</ele>
        <time>2015-09-02T15:48:28Z</time>
      </trkpt>
      <trkpt lat="46.31104" lon="6.04885">
        <ele>560.62</ele>
        <time>2015-09-02T15:48:29Z</time>
      </trkpt>
      <trkpt lat="46.31106" lon="6.04888">
        <ele>560.7</ele>
        <time>2015-09-02T15:48:30Z</time>
      </trkpt>
      <trkpt lat="46.3111" lon="6.04897">
        <ele>560.83</ele>
        <time>2015-09-02T15:48:33Z</time>
      </trkpt>
      <trkpt lat="46.3111" lon="6.04899">
        <ele>560.74</ele>
        <time>2015-09-02T15:48:34Z</time>
      </trkpt>
      <trkpt lat="46.3111" lon="6.04901">
        <ele>560.69</ele>
        <time>2015-09-02T15:48:35Z</time>
      </trkpt>
      <trkpt lat="46.3111" lon="6.04905">
        <ele>560.58</ele>
        <time>2015-09-02T15:48:40Z</time>
      </trkpt>
      <trkpt lat="46.31109" lon="6.04908">
        <ele>560.56</ele>
        <time>2015-09-02T15:48:41Z</time>
      </trkpt>
      <trkpt lat="46.31107" lon="6.04911">
        <ele>560.42</ele>
        <time>2015-09-02T15:48:42Z</time>
      </trkpt>
      <trkpt lat="46.31105" lon="6.0492">
        <ele>560.38</ele>
        <time>2015-09-02T15:48:44Z</time>
      </trkpt>
      <trkpt lat="46.31104" lon="6.04926">
        <ele>560.46</ele>
        <time>2015-09-02T15:48:45Z</time>
      </trkpt>
      <trkpt lat="46.31104" lon="6.04932">
        <ele>560.63</ele>
        <time>2015-09-02T15:48:46Z</time>
      </trkpt>
      <trkpt lat="46.31106" lon="6.04945">
        <ele>560.55</ele>
        <time>2015-09-02T15:48:48Z</time>
      </trkpt>
      <trkpt lat="46.31109" lon="6.0495">
        <ele>560.63</ele>
        <time>2015-09-02T15:48:49Z</time>
      </trkpt>
      <trkpt lat="46.31113" lon="6.04955">
        <ele>560.8</ele>
        <time>2015-09-02T15:48:50Z</time>
      </trkpt>
      <trkpt lat="46.31118" lon="6.04957">
        <ele>560.88</ele>
        <time>2015-09-02T15:48:51Z</time>
      </trkpt>
      <trkpt lat="46.31123" lon="6.04958">
        <ele>560.82</ele>
        <time>2015-09-02T15:48:52Z</time>
      </trkpt>
      <trkpt lat="46.31129" lon="6.04957">
        <ele>560.78</ele>
        <time>2015-09-02T15:48:53Z</time>
      </trkpt>
      <trkpt lat="46.31134" lon="6.04955">
        <ele>560.78</ele>
        <time>2015-09-02T15:48:54Z</time>
      </trkpt>
      <trkpt lat="46.31139" lon="6.04953">
        <ele>560.8</ele>
        <time>2015-09-02T15:48:55Z</time>
      </trkpt>
      <trkpt lat="46.31145" lon="6.04952">
        <ele>560.88</ele>
        <time>2015-09-02T15:48:56Z</time>
      </trkpt>
      <trkpt lat="46.3115" lon="6.04952">
        <ele>560.84</ele>
        <time>2015-09-02T15:48:57Z</time>
      </trkpt>
      <trkpt lat="46.31156" lon="6.04954">
        <ele>560.79</ele>
        <time>2015-09-02T15:48:58Z</time>
      </trkpt>
      <trkpt lat="46.3125" lon="6.04985">
        <ele>561.56</ele>
        <time>2015-09-02T15:49:14Z</time>
      </trkpt>
      <trkpt lat="46.31311" lon="6.05009">
        <ele>562.05</ele>
        <time>2015-09-02T15:49:25Z</time>
      </trkpt>
      <trkpt lat="46.31428" lon="6.05055">
        <ele>563</ele>
        <time>2015-09-02T15:49:44Z</time>
      </trkpt>
      <trkpt lat="46.31514" lon="6.05089">
        <ele>565.8</ele>
        <time>2015-09-02T15:49:59Z</time>
      </trkpt>
      <trkpt lat="46.31608" lon="6.05134">
        <ele>566.89</ele>
        <time>2015-09-02T15:50:16Z</time>
      </trkpt>
      <trkpt lat="46.31614" lon="6.05139">
        <ele>567.1</ele>
        <time>2015-09-02T15:50:17Z</time>
      </trkpt>
      <trkpt lat="46.31618" lon="6.05144">
        <ele>567.24</ele>
        <time>2015-09-02T15:50:18Z</time>
      </trkpt>
      <trkpt lat="46.31622" lon="6.05151">
        <ele>567.33</ele>
        <time>2015-09-02T15:50:19Z</time>
      </trkpt>
      <trkpt lat="46.31626" lon="6.05159">
        <ele>567.38</ele>
        <time>2015-09-02T15:50:20Z</time>
      </trkpt>
      <trkpt lat="46.31628" lon="6.05168">
        <ele>567.3</ele>
        <time>2015-09-02T15:50:21Z</time>
      </trkpt>
      <trkpt lat="46.31629" lon="6.05178">
        <ele>567.29</ele>
        <time>2015-09-02T15:50:22Z</time>
      </trkpt>
      <trkpt lat="46.31629" lon="6.05189">
        <ele>567.25</ele>
        <time>2015-09-02T15:50:23Z</time>
      </trkpt>
      <trkpt lat="46.31628" lon="6.052">
        <ele>567.15</ele>
        <time>2015-09-02T15:50:24Z</time>
      </trkpt>
      <trkpt lat="46.31627" lon="6.0521">
        <ele>567.04</ele>
        <time>2015-09-02T15:50:25Z</time>
      </trkpt>
      <trkpt lat="46.31603" lon="6.05329">
        <ele>564</ele>
        <time>2015-09-02T15:50:35Z</time>
      </trkpt>
      <trkpt lat="46.31584" lon="6.05446">
        <ele>560.74</ele>
        <time>2015-09-02T15:50:43Z</time>
      </trkpt>
      <trkpt lat="46.31586" lon="6.05543">
        <ele>557.67</ele>
        <time>2015-09-02T15:50:49Z</time>
      </trkpt>
      <trkpt lat="46.31596" lon="6.05607">
        <ele>555.81</ele>
        <time>2015-09-02T15:50:53Z</time>
      </trkpt>
      <trkpt lat="46.31641" lon="6.05763">
        <ele>552.76</ele>
        <time>2015-09-02T15:51:03Z</time>
      </trkpt>
      <trkpt lat="46.31706" lon="6.05925">
        <ele>549.75</ele>
        <time>2015-09-02T15:51:15Z</time>
      </trkpt>
      <trkpt lat="46.31792" lon="6.06138">
        <ele>547.15</ele>
        <time>2015-09-02T15:51:34Z</time>
      </trkpt>
      <trkpt lat="46.31835" lon="6.06302">
        <ele>547.95</ele>
        <time>2015-09-02T15:51:50Z</time>
      </trkpt>
      <trkpt lat="46.31831" lon="6.06396">
        <ele>547.87</ele>
        <time>2015-09-02T15:52:00Z</time>
      </trkpt>
      <trkpt lat="46.31828" lon="6.06414">
        <ele>547.72</ele>
        <time>2015-09-02T15:52:02Z</time>
      </trkpt>
      <trkpt lat="46.31828" lon="6.06423">
        <ele>547.66</ele>
        <time>2015-09-02T15:52:03Z</time>
      </trkpt>
      <trkpt lat="46.3183" lon="6.06433">
        <ele>547.59</ele>
        <time>2015-09-02T15:52:04Z</time>
      </trkpt>
      <trkpt lat="46.31833" lon="6.06442">
        <ele>547.6</ele>
        <time>2015-09-02T15:52:05Z</time>
      </trkpt>
      <trkpt lat="46.31834" lon="6.06451">
        <ele>547.54</ele>
        <time>2015-09-02T15:52:06Z</time>
      </trkpt>
      <trkpt lat="46.31835" lon="6.06461">
        <ele>547.44</ele>
        <time>2015-09-02T15:52:07Z</time>
      </trkpt>
      <trkpt lat="46.31831" lon="6.0647">
        <ele>547.39</ele>
        <time>2015-09-02T15:52:08Z</time>
      </trkpt>
      <trkpt lat="46.31827" lon="6.06479">
        <ele>547.36</ele>
        <time>2015-09-02T15:52:09Z</time>
      </trkpt>
      <trkpt lat="46.31815" lon="6.06508">
        <ele>547.16</ele>
        <time>2015-09-02T15:52:12Z</time>
      </trkpt>
      <trkpt lat="46.31814" lon="6.06519">
        <ele>547.16</ele>
        <time>2015-09-02T15:52:13Z</time>
      </trkpt>
      <trkpt lat="46.31815" lon="6.06543">
        <ele>546.82</ele>
        <time>2015-09-02T15:52:15Z</time>
      </trkpt>
      <trkpt lat="46.31821" lon="6.06602">
        <ele>546.16</ele>
        <time>2015-09-02T15:52:20Z</time>
      </trkpt>
      <trkpt lat="46.31822" lon="6.06613">
        <ele>546.1</ele>
        <time>2015-09-02T15:52:21Z</time>
      </trkpt>
      <trkpt lat="46.31822" lon="6.06647">
        <ele>545.68</ele>
        <time>2015-09-02T15:52:24Z</time>
      </trkpt>
      <trkpt lat="46.3182" lon="6.06659">
        <ele>545.66</ele>
        <time>2015-09-02T15:52:25Z</time>
      </trkpt>
      <trkpt lat="46.31817" lon="6.0667">
        <ele>545.62</ele>
        <time>2015-09-02T15:52:26Z</time>
      </trkpt>
      <trkpt lat="46.31814" lon="6.06681">
        <ele>545.59</ele>
        <time>2015-09-02T15:52:27Z</time>
      </trkpt>
      <trkpt lat="46.3181" lon="6.06691">
        <ele>545.48</ele>
        <time>2015-09-02T15:52:28Z</time>
      </trkpt>
      <trkpt lat="46.3179" lon="6.06748">
        <ele>544.82</ele>
        <time>2015-09-02T15:52:33Z</time>
      </trkpt>
      <trkpt lat="46.31791" lon="6.0676">
        <ele>544.04</ele>
        <time>2015-09-02T15:52:34Z</time>
      </trkpt>
      <trkpt lat="46.318" lon="6.06782">
        <ele>543.56</ele>
        <time>2015-09-02T15:52:36Z</time>
      </trkpt>
      <trkpt lat="46.3181" lon="6.06803">
        <ele>542.94</ele>
        <time>2015-09-02T15:52:38Z</time>
      </trkpt>
      <trkpt lat="46.31812" lon="6.06814">
        <ele>542.49</ele>
        <time>2015-09-02T15:52:39Z</time>
      </trkpt>
      <trkpt lat="46.31812" lon="6.06833">
        <ele>542.32</ele>
        <time>2015-09-02T15:52:41Z</time>
      </trkpt>
      <trkpt lat="46.31813" lon="6.06841">
        <ele>542.24</ele>
        <time>2015-09-02T15:52:42Z</time>
      </trkpt>
      <trkpt lat="46.31817" lon="6.06847">
        <ele>542.19</ele>
        <time>2015-09-02T15:52:43Z</time>
      </trkpt>
      <trkpt lat="46.31823" lon="6.0685">
        <ele>542.19</ele>
        <time>2015-09-02T15:52:44Z</time>
      </trkpt>
      <trkpt lat="46.31828" lon="6.06853">
        <ele>542.22</ele>
        <time>2015-09-02T15:52:45Z</time>
      </trkpt>
      <trkpt lat="46.31833" lon="6.06858">
        <ele>542.15</ele>
        <time>2015-09-02T15:52:46Z</time>
      </trkpt>
      <trkpt lat="46.31838" lon="6.06864">
        <ele>542.11</ele>
        <time>2015-09-02T15:52:47Z</time>
      </trkpt>
      <trkpt lat="46.31842" lon="6.06871">
        <ele>542.1</ele>
        <time>2015-09-02T15:52:48Z</time>
      </trkpt>
      <trkpt lat="46.31846" lon="6.06879">
        <ele>542.13</ele>
        <time>2015-09-02T15:52:49Z</time>
      </trkpt>
      <trkpt lat="46.31849" lon="6.06887">
        <ele>542.14</ele>
        <time>2015-09-02T15:52:50Z</time>
      </trkpt>
      <trkpt lat="46.31857" lon="6.06921">
        <ele>543.06</ele>
        <time>2015-09-02T15:52:54Z</time>
      </trkpt>
      <trkpt lat="46.31859" lon="6.06929">
        <ele>543.3</ele>
        <time>2015-09-02T15:52:55Z</time>
      </trkpt>
      <trkpt lat="46.31865" lon="6.06954">
        <ele>544.04</ele>
        <time>2015-09-02T15:52:58Z</time>
      </trkpt>
      <trkpt lat="46.31868" lon="6.06962">
        <ele>544.28</ele>
        <time>2015-09-02T15:52:59Z</time>
      </trkpt>
      <trkpt lat="46.31871" lon="6.06971">
        <ele>544.53</ele>
        <time>2015-09-02T15:53:00Z</time>
      </trkpt>
      <trkpt lat="46.31906" lon="6.07073">
        <ele>544.85</ele>
        <time>2015-09-02T15:53:14Z</time>
      </trkpt>
      <trkpt lat="46.31906" lon="6.07082">
        <ele>544.39</ele>
        <time>2015-09-02T15:53:16Z</time>
      </trkpt>
      <trkpt lat="46.31905" lon="6.07106">
        <ele>544.08</ele>
        <time>2015-09-02T15:53:19Z</time>
      </trkpt>
      <trkpt lat="46.31905" lon="6.07115">
        <ele>543.92</ele>
        <time>2015-09-02T15:53:20Z</time>
      </trkpt>
      <trkpt lat="46.31906" lon="6.07125">
        <ele>543.69</ele>
        <time>2015-09-02T15:53:21Z</time>
      </trkpt>
      <trkpt lat="46.31909" lon="6.0719">
        <ele>541.5</ele>
        <time>2015-09-02T15:53:27Z</time>
      </trkpt>
      <trkpt lat="46.31908" lon="6.07201">
        <ele>541.31</ele>
        <time>2015-09-02T15:53:28Z</time>
      </trkpt>
      <trkpt lat="46.31906" lon="6.07212">
        <ele>541.2</ele>
        <time>2015-09-02T15:53:29Z</time>
      </trkpt>
      <trkpt lat="46.31903" lon="6.07223">
        <ele>541.15</ele>
        <time>2015-09-02T15:53:30Z</time>
      </trkpt>
      <trkpt lat="46.319" lon="6.07233">
        <ele>541.12</ele>
        <time>2015-09-02T15:53:31Z</time>
      </trkpt>
      <trkpt lat="46.31895" lon="6.07253">
        <ele>541.04</ele>
        <time>2015-09-02T15:53:33Z</time>
      </trkpt>
      <trkpt lat="46.31893" lon="6.07264">
        <ele>540.92</ele>
        <time>2015-09-02T15:53:34Z</time>
      </trkpt>
      <trkpt lat="46.31893" lon="6.07274">
        <ele>540.87</ele>
        <time>2015-09-02T15:53:35Z</time>
      </trkpt>
      <trkpt lat="46.31894" lon="6.07285">
        <ele>540.84</ele>
        <time>2015-09-02T15:53:36Z</time>
      </trkpt>
      <trkpt lat="46.31896" lon="6.07295">
        <ele>540.82</ele>
        <time>2015-09-02T15:53:37Z</time>
      </trkpt>
      <trkpt lat="46.31899" lon="6.07305">
        <ele>540.91</ele>
        <time>2015-09-02T15:53:38Z</time>
      </trkpt>
      <trkpt lat="46.31909" lon="6.07333">
        <ele>540.77</ele>
        <time>2015-09-02T15:53:41Z</time>
      </trkpt>
      <trkpt lat="46.31926" lon="6.07366">
        <ele>540.14</ele>
        <time>2015-09-02T15:53:45Z</time>
      </trkpt>
      <trkpt lat="46.31929" lon="6.07375">
        <ele>540</ele>
        <time>2015-09-02T15:53:46Z</time>
      </trkpt>
      <trkpt lat="46.31932" lon="6.07386">
        <ele>539.82</ele>
        <time>2015-09-02T15:53:47Z</time>
      </trkpt>
      <trkpt lat="46.31933" lon="6.07397">
        <ele>539.67</ele>
        <time>2015-09-02T15:53:48Z</time>
      </trkpt>
      <trkpt lat="46.31932" lon="6.07408">
        <ele>539.53</ele>
        <time>2015-09-02T15:53:49Z</time>
      </trkpt>
      <trkpt lat="46.31929" lon="6.07419">
        <ele>539.33</ele>
        <time>2015-09-02T15:53:50Z</time>
      </trkpt>
      <trkpt lat="46.31925" lon="6.07428">
        <ele>539.33</ele>
        <time>2015-09-02T15:53:51Z</time>
      </trkpt>
      <trkpt lat="46.31854" lon="6.07582">
        <ele>536.97</ele>
        <time>2015-09-02T15:54:06Z</time>
      </trkpt>
      <trkpt lat="46.3181" lon="6.07676">
        <ele>533.7</ele>
        <time>2015-09-02T15:54:14Z</time>
      </trkpt>
      <trkpt lat="46.31791" lon="6.07713">
        <ele>532.29</ele>
        <time>2015-09-02T15:54:17Z</time>
      </trkpt>
      <trkpt lat="46.31784" lon="6.07726">
        <ele>531.72</ele>
        <time>2015-09-02T15:54:18Z</time>
      </trkpt>
      <trkpt lat="46.31758" lon="6.07778">
        <ele>528.61</ele>
        <time>2015-09-02T15:54:22Z</time>
      </trkpt>
      <trkpt lat="46.31695" lon="6.07891">
        <ele>525.36</ele>
        <time>2015-09-02T15:54:31Z</time>
      </trkpt>
      <trkpt lat="46.31679" lon="6.07914">
        <ele>523.93</ele>
        <time>2015-09-02T15:54:33Z</time>
      </trkpt>
      <trkpt lat="46.3166" lon="6.0793">
        <ele>523.16</ele>
        <time>2015-09-02T15:54:35Z</time>
      </trkpt>
      <trkpt lat="46.3165" lon="6.07936">
        <ele>523.09</ele>
        <time>2015-09-02T15:54:36Z</time>
      </trkpt>
      <trkpt lat="46.31598" lon="6.07962">
        <ele>522.01</ele>
        <time>2015-09-02T15:54:41Z</time>
      </trkpt>
      <trkpt lat="46.31571" lon="6.07987">
        <ele>521.4</ele>
        <time>2015-09-02T15:54:44Z</time>
      </trkpt>
      <trkpt lat="46.31564" lon="6.07999">
        <ele>521.2</ele>
        <time>2015-09-02T15:54:45Z</time>
      </trkpt>
      <trkpt lat="46.31559" lon="6.08012">
        <ele>520.96</ele>
        <time>2015-09-02T15:54:46Z</time>
      </trkpt>
      <trkpt lat="46.31555" lon="6.08025">
        <ele>520.74</ele>
        <time>2015-09-02T15:54:47Z</time>
      </trkpt>
      <trkpt lat="46.31551" lon="6.08039">
        <ele>520.54</ele>
        <time>2015-09-02T15:54:48Z</time>
      </trkpt>
      <trkpt lat="46.31542" lon="6.08065">
        <ele>520.12</ele>
        <time>2015-09-02T15:54:50Z</time>
      </trkpt>
      <trkpt lat="46.31501" lon="6.08166">
        <ele>518.69</ele>
        <time>2015-09-02T15:54:58Z</time>
      </trkpt>
      <trkpt lat="46.31499" lon="6.0818">
        <ele>518.58</ele>
        <time>2015-09-02T15:54:59Z</time>
      </trkpt>
      <trkpt lat="46.31484" lon="6.08387">
        <ele>516.61</ele>
        <time>2015-09-02T15:55:14Z</time>
      </trkpt>
      <trkpt lat="46.31477" lon="6.08472">
        <ele>515.65</ele>
        <time>2015-09-02T15:55:20Z</time>
      </trkpt>
      <trkpt lat="46.31475" lon="6.08486">
        <ele>515.31</ele>
        <time>2015-09-02T15:55:21Z</time>
      </trkpt>
      <trkpt lat="46.31472" lon="6.08501">
        <ele>515.05</ele>
        <time>2015-09-02T15:55:22Z</time>
      </trkpt>
      <trkpt lat="46.31469" lon="6.08515">
        <ele>514.88</ele>
        <time>2015-09-02T15:55:23Z</time>
      </trkpt>
      <trkpt lat="46.31465" lon="6.08529">
        <ele>514.64</ele>
        <time>2015-09-02T15:55:24Z</time>
      </trkpt>
      <trkpt lat="46.31455" lon="6.08556">
        <ele>513.6</ele>
        <time>2015-09-02T15:55:26Z</time>
      </trkpt>
      <trkpt lat="46.31443" lon="6.08582">
        <ele>512.93</ele>
        <time>2015-09-02T15:55:28Z</time>
      </trkpt>
      <trkpt lat="46.31323" lon="6.08791">
        <ele>509.81</ele>
        <time>2015-09-02T15:55:45Z</time>
      </trkpt>
      <trkpt lat="46.31258" lon="6.08905">
        <ele>506.71</ele>
        <time>2015-09-02T15:55:54Z</time>
      </trkpt>
      <trkpt lat="46.31195" lon="6.09053">
        <ele>504.6</ele>
        <time>2015-09-02T15:56:05Z</time>
      </trkpt>
      <trkpt lat="46.31154" lon="6.09237">
        <ele>507.81</ele>
        <time>2015-09-02T15:56:19Z</time>
      </trkpt>
      <trkpt lat="46.31113" lon="6.09416">
        <ele>510.53</ele>
        <time>2015-09-02T15:56:34Z</time>
      </trkpt>
      <trkpt lat="46.31112" lon="6.09568">
        <ele>511.91</ele>
        <time>2015-09-02T15:56:47Z</time>
      </trkpt>
      <trkpt lat="46.31137" lon="6.09701">
        <ele>513.02</ele>
        <time>2015-09-02T15:56:59Z</time>
      </trkpt>
      <trkpt lat="46.31166" lon="6.09783">
        <ele>512.5</ele>
        <time>2015-09-02T15:57:07Z</time>
      </trkpt>
      <trkpt lat="46.3117" lon="6.09793">
        <ele>512.5</ele>
        <time>2015-09-02T15:57:08Z</time>
      </trkpt>
      <trkpt lat="46.31235" lon="6.09976">
        <ele>512.22</ele>
        <time>2015-09-02T15:57:26Z</time>
      </trkpt>
      <trkpt lat="46.3126" lon="6.10042">
        <ele>513.01</ele>
        <time>2015-09-02T15:57:33Z</time>
      </trkpt>
      <trkpt lat="46.31358" lon="6.10202">
        <ele>512.63</ele>
        <time>2015-09-02T15:57:53Z</time>
      </trkpt>
      <trkpt lat="46.31418" lon="6.10341">
        <ele>513.42</ele>
        <time>2015-09-02T15:58:09Z</time>
      </trkpt>
      <trkpt lat="46.3145" lon="6.10496">
        <ele>512.45</ele>
        <time>2015-09-02T15:58:24Z</time>
      </trkpt>
      <trkpt lat="46.31448" lon="6.10695">
        <ele>512.83</ele>
        <time>2015-09-02T15:58:42Z</time>
      </trkpt>
      <trkpt lat="46.31439" lon="6.10758">
        <ele>513.35</ele>
        <time>2015-09-02T15:58:48Z</time>
      </trkpt>
      <trkpt lat="46.31435" lon="6.10766">
        <ele>513.39</ele>
        <time>2015-09-02T15:58:49Z</time>
      </trkpt>
      <trkpt lat="46.3143" lon="6.10773">
        <ele>513.41</ele>
        <time>2015-09-02T15:58:50Z</time>
      </trkpt>
      <trkpt lat="46.31428" lon="6.10781">
        <ele>513.45</ele>
        <time>2015-09-02T15:58:51Z</time>
      </trkpt>
      <trkpt lat="46.31429" lon="6.10789">
        <ele>513.4</ele>
        <time>2015-09-02T15:58:52Z</time>
      </trkpt>
      <trkpt lat="46.31433" lon="6.10796">
        <ele>513.44</ele>
        <time>2015-09-02T15:58:53Z</time>
      </trkpt>
      <trkpt lat="46.31438" lon="6.108">
        <ele>513.61</ele>
        <time>2015-09-02T15:58:54Z</time>
      </trkpt>
      <trkpt lat="46.31443" lon="6.10802">
        <ele>513.71</ele>
        <time>2015-09-02T15:58:55Z</time>
      </trkpt>
      <trkpt lat="46.31449" lon="6.10805">
        <ele>513.87</ele>
        <time>2015-09-02T15:58:56Z</time>
      </trkpt>
      <trkpt lat="46.31491" lon="6.10838">
        <ele>516.1</ele>
        <time>2015-09-02T15:59:04Z</time>
      </trkpt>
      <trkpt lat="46.31496" lon="6.10842">
        <ele>516.18</ele>
        <time>2015-09-02T15:59:05Z</time>
      </trkpt>
      <trkpt lat="46.31564" lon="6.1092">
        <ele>518.58</ele>
        <time>2015-09-02T15:59:21Z</time>
      </trkpt>
      <trkpt lat="46.31628" lon="6.1104">
        <ele>519.05</ele>
        <time>2015-09-02T15:59:39Z</time>
      </trkpt>
      <trkpt lat="46.31703" lon="6.11123">
        <ele>517.25</ele>
        <time>2015-09-02T15:59:52Z</time>
      </trkpt>
      <trkpt lat="46.31812" lon="6.11227">
        <ele>513.91</ele>
        <time>2015-09-02T16:00:08Z</time>
      </trkpt>
      <trkpt lat="46.31924" lon="6.11305">
        <ele>512.75</ele>
        <time>2015-09-02T16:00:23Z</time>
      </trkpt>
      <trkpt lat="46.32044" lon="6.11361">
        <ele>512.14</ele>
        <time>2015-09-02T16:00:39Z</time>
      </trkpt>
      <trkpt lat="46.32052" lon="6.11362">
        <ele>512.08</ele>
        <time>2015-09-02T16:00:40Z</time>
      </trkpt>
      <trkpt lat="46.3206" lon="6.11362">
        <ele>512.05</ele>
        <time>2015-09-02T16:00:41Z</time>
      </trkpt>
      <trkpt lat="46.32068" lon="6.11361">
        <ele>511.92</ele>
        <time>2015-09-02T16:00:42Z</time>
      </trkpt>
      <trkpt lat="46.32076" lon="6.11359">
        <ele>511.85</ele>
        <time>2015-09-02T16:00:43Z</time>
      </trkpt>
      <trkpt lat="46.32195" lon="6.11341">
        <ele>510.71</ele>
        <time>2015-09-02T16:00:58Z</time>
      </trkpt>
      <trkpt lat="46.32362" lon="6.11316">
        <ele>510.05</ele>
        <time>2015-09-02T16:01:19Z</time>
      </trkpt>
      <trkpt lat="46.32518" lon="6.11287">
        <ele>509.95</ele>
        <time>2015-09-02T16:01:40Z</time>
      </trkpt>
      <trkpt lat="46.32541" lon="6.11286">
        <ele>509.56</ele>
        <time>2015-09-02T16:01:43Z</time>
      </trkpt>
      <trkpt lat="46.32549" lon="6.11285">
        <ele>509.65</ele>
        <time>2015-09-02T16:01:44Z</time>
      </trkpt>
      <trkpt lat="46.32637" lon="6.11299">
        <ele>509.26</ele>
        <time>2015-09-02T16:01:56Z</time>
      </trkpt>
      <trkpt lat="46.32642" lon="6.11298">
        <ele>509.36</ele>
        <time>2015-09-02T16:01:57Z</time>
      </trkpt>
      <trkpt lat="46.32646" lon="6.11294">
        <ele>509.27</ele>
        <time>2015-09-02T16:01:58Z</time>
      </trkpt>
      <trkpt lat="46.32648" lon="6.11289">
        <ele>509.39</ele>
        <time>2015-09-02T16:01:59Z</time>
      </trkpt>
      <trkpt lat="46.32649" lon="6.11284">
        <ele>509.39</ele>
        <time>2015-09-02T16:02:00Z</time>
      </trkpt>
      <trkpt lat="46.3265" lon="6.11278">
        <ele>509.31</ele>
        <time>2015-09-02T16:02:01Z</time>
      </trkpt>
      <trkpt lat="46.32647" lon="6.11264">
        <ele>509.01</ele>
        <time>2015-09-02T16:02:03Z</time>
      </trkpt>
      <trkpt lat="46.32641" lon="6.1125">
        <ele>508.9</ele>
        <time>2015-09-02T16:02:05Z</time>
      </trkpt>
      <trkpt lat="46.32585" lon="6.11143">
        <ele>509.19</ele>
        <time>2015-09-02T16:02:18Z</time>
      </trkpt>
      <trkpt lat="46.32541" lon="6.11019">
        <ele>509.2</ele>
        <time>2015-09-02T16:02:31Z</time>
      </trkpt>
      <trkpt lat="46.32495" lon="6.10938">
        <ele>509.93</ele>
        <time>2015-09-02T16:02:41Z</time>
      </trkpt>
      <trkpt lat="46.3246" lon="6.10902">
        <ele>511.46</ele>
        <time>2015-09-02T16:02:47Z</time>
      </trkpt>
      <trkpt lat="46.32452" lon="6.10887">
        <ele>512.06</ele>
        <time>2015-09-02T16:02:49Z</time>
      </trkpt>
      <trkpt lat="46.32449" lon="6.10879">
        <ele>512.33</ele>
        <time>2015-09-02T16:02:50Z</time>
      </trkpt>
      <trkpt lat="46.32446" lon="6.10871">
        <ele>512.57</ele>
        <time>2015-09-02T16:02:51Z</time>
      </trkpt>
      <trkpt lat="46.32444" lon="6.10863">
        <ele>512.74</ele>
        <time>2015-09-02T16:02:52Z</time>
      </trkpt>
      <trkpt lat="46.32442" lon="6.10854">
        <ele>513.02</ele>
        <time>2015-09-02T16:02:53Z</time>
      </trkpt>
      <trkpt lat="46.32441" lon="6.10846">
        <ele>513.5</ele>
        <time>2015-09-02T16:02:54Z</time>
      </trkpt>
      <trkpt lat="46.32439" lon="6.10837">
        <ele>514.1</ele>
        <time>2015-09-02T16:02:55Z</time>
      </trkpt>
      <trkpt lat="46.32436" lon="6.10828">
        <ele>514.55</ele>
        <time>2015-09-02T16:02:56Z</time>
      </trkpt>
      <trkpt lat="46.32432" lon="6.10819">
        <ele>514.77</ele>
        <time>2015-09-02T16:02:57Z</time>
      </trkpt>
      <trkpt lat="46.32429" lon="6.1081">
        <ele>514.88</ele>
        <time>2015-09-02T16:02:58Z</time>
      </trkpt>
      <trkpt lat="46.32424" lon="6.10801">
        <ele>514.64</ele>
        <time>2015-09-02T16:02:59Z</time>
      </trkpt>
      <trkpt lat="46.32361" lon="6.10689">
        <ele>511.6</ele>
        <time>2015-09-02T16:03:11Z</time>
      </trkpt>
      <trkpt lat="46.32328" lon="6.1064">
        <ele>511.53</ele>
        <time>2015-09-02T16:03:17Z</time>
      </trkpt>
      <trkpt lat="46.32314" lon="6.10629">
        <ele>511.48</ele>
        <time>2015-09-02T16:03:19Z</time>
      </trkpt>
      <trkpt lat="46.32263" lon="6.10595">
        <ele>511.38</ele>
        <time>2015-09-02T16:03:26Z</time>
      </trkpt>
      <trkpt lat="46.32257" lon="6.10589">
        <ele>511.48</ele>
        <time>2015-09-02T16:03:27Z</time>
      </trkpt>
      <trkpt lat="46.32252" lon="6.10581">
        <ele>511.62</ele>
        <time>2015-09-02T16:03:28Z</time>
      </trkpt>
      <trkpt lat="46.32248" lon="6.10573">
        <ele>511.76</ele>
        <time>2015-09-02T16:03:29Z</time>
      </trkpt>
      <trkpt lat="46.32244" lon="6.10564">
        <ele>511.93</ele>
        <time>2015-09-02T16:03:30Z</time>
      </trkpt>
      <trkpt lat="46.32241" lon="6.10556">
        <ele>512.18</ele>
        <time>2015-09-02T16:03:31Z</time>
      </trkpt>
      <trkpt lat="46.32239" lon="6.10547">
        <ele>512.56</ele>
        <time>2015-09-02T16:03:32Z</time>
      </trkpt>
      <trkpt lat="46.32238" lon="6.10539">
        <ele>513.08</ele>
        <time>2015-09-02T16:03:33Z</time>
      </trkpt>
      <trkpt lat="46.32237" lon="6.1053">
        <ele>513.59</ele>
        <time>2015-09-02T16:03:34Z</time>
      </trkpt>
      <trkpt lat="46.32208" lon="6.10403">
        <ele>515.79</ele>
        <time>2015-09-02T16:03:48Z</time>
      </trkpt>
      <trkpt lat="46.32163" lon="6.10306">
        <ele>514.27</ele>
        <time>2015-09-02T16:03:59Z</time>
      </trkpt>
      <trkpt lat="46.32129" lon="6.10212">
        <ele>515.31</ele>
        <time>2015-09-02T16:04:10Z</time>
      </trkpt>
      <trkpt lat="46.3212" lon="6.10188">
        <ele>515.36</ele>
        <time>2015-09-02T16:04:13Z</time>
      </trkpt>
      <trkpt lat="46.32118" lon="6.10179">
        <ele>515.36</ele>
        <time>2015-09-02T16:04:14Z</time>
      </trkpt>
      <trkpt lat="46.32093" lon="6.1005">
        <ele>517.38</ele>
        <time>2015-09-02T16:04:30Z</time>
      </trkpt>
      <trkpt lat="46.32091" lon="6.10038">
        <ele>517.85</ele>
        <time>2015-09-02T16:04:32Z</time>
      </trkpt>
      <trkpt lat="46.32091" lon="6.10033">
        <ele>517.97</ele>
        <time>2015-09-02T16:04:33Z</time>
      </trkpt>
      <trkpt lat="46.32091" lon="6.10027">
        <ele>518.19</ele>
        <time>2015-09-02T16:04:34Z</time>
      </trkpt>
      <trkpt lat="46.32092" lon="6.10021">
        <ele>518.47</ele>
        <time>2015-09-02T16:04:35Z</time>
      </trkpt>
      <trkpt lat="46.32092" lon="6.10016">
        <ele>518.71</ele>
        <time>2015-09-02T16:04:36Z</time>
      </trkpt>
      <trkpt lat="46.32093" lon="6.10012">
        <ele>519.22</ele>
        <time>2015-09-02T16:04:37Z</time>
      </trkpt>
      <trkpt lat="46.32094" lon="6.10007">
        <ele>519.88</ele>
        <time>2015-09-02T16:04:38Z</time>
      </trkpt>
      <trkpt lat="46.32095" lon="6.10003">
        <ele>520.48</ele>
        <time>2015-09-02T16:04:39Z</time>
      </trkpt>
      <trkpt lat="46.32096" lon="6.09998">
        <ele>520.87</ele>
        <time>2015-09-02T16:04:40Z</time>
      </trkpt>
      <trkpt lat="46.32097" lon="6.09994">
        <ele>521.2</ele>
        <time>2015-09-02T16:04:41Z</time>
      </trkpt>
      <trkpt lat="46.32099" lon="6.09992">
        <ele>521.62</ele>
        <time>2015-09-02T16:04:42Z</time>
      </trkpt>
      <trkpt lat="46.32102" lon="6.09989">
        <ele>521.99</ele>
        <time>2015-09-02T16:04:43Z</time>
      </trkpt>
      <trkpt lat="46.32104" lon="6.09986">
        <ele>522.34</ele>
        <time>2015-09-02T16:04:44Z</time>
      </trkpt>
      <trkpt lat="46.32109" lon="6.09981">
        <ele>523.33</ele>
        <time>2015-09-02T16:04:46Z</time>
      </trkpt>
      <trkpt lat="46.32112" lon="6.09978">
        <ele>523.33</ele>
        <time>2015-09-02T16:04:47Z</time>
      </trkpt>
      <trkpt lat="46.32114" lon="6.09975">
        <ele>523.81</ele>
        <time>2015-09-02T16:04:48Z</time>
      </trkpt>
      <trkpt lat="46.32116" lon="6.09971">
        <ele>524.22</ele>
        <time>2015-09-02T16:04:49Z</time>
      </trkpt>
      <trkpt lat="46.32118" lon="6.09967">
        <ele>524.51</ele>
        <time>2015-09-02T16:04:50Z</time>
      </trkpt>
      <trkpt lat="46.3212" lon="6.09963">
        <ele>524.64</ele>
        <time>2015-09-02T16:04:51Z</time>
      </trkpt>
      <trkpt lat="46.32122" lon="6.09959">
        <ele>524.81</ele>
        <time>2015-09-02T16:04:52Z</time>
      </trkpt>
      <trkpt lat="46.32124" lon="6.09954">
        <ele>525.06</ele>
        <time>2015-09-02T16:04:53Z</time>
      </trkpt>
      <trkpt lat="46.32126" lon="6.09949">
        <ele>525.01</ele>
        <time>2015-09-02T16:04:54Z</time>
      </trkpt>
      <trkpt lat="46.32126" lon="6.09945">
        <ele>525.02</ele>
        <time>2015-09-02T16:04:55Z</time>
      </trkpt>
      <trkpt lat="46.32127" lon="6.0994">
        <ele>525.28</ele>
        <time>2015-09-02T16:04:56Z</time>
      </trkpt>
      <trkpt lat="46.32127" lon="6.09936">
        <ele>525.77</ele>
        <time>2015-09-02T16:04:57Z</time>
      </trkpt>
      <trkpt lat="46.32128" lon="6.09932">
        <ele>526.15</ele>
        <time>2015-09-02T16:04:58Z</time>
      </trkpt>
      <trkpt lat="46.32128" lon="6.09927">
        <ele>526.57</ele>
        <time>2015-09-02T16:04:59Z</time>
      </trkpt>
      <trkpt lat="46.32128" lon="6.09923">
        <ele>526.94</ele>
        <time>2015-09-02T16:05:00Z</time>
      </trkpt>
      <trkpt lat="46.32128" lon="6.09918">
        <ele>527.17</ele>
        <time>2015-09-02T16:05:01Z</time>
      </trkpt>
      <trkpt lat="46.32128" lon="6.09912">
        <ele>527.35</ele>
        <time>2015-09-02T16:05:02Z</time>
      </trkpt>
      <trkpt lat="46.32128" lon="6.09907">
        <ele>527.52</ele>
        <time>2015-09-02T16:05:03Z</time>
      </trkpt>
      <trkpt lat="46.32127" lon="6.09903">
        <ele>527.8</ele>
        <time>2015-09-02T16:05:04Z</time>
      </trkpt>
      <trkpt lat="46.32127" lon="6.09898">
        <ele>528.2</ele>
        <time>2015-09-02T16:05:05Z</time>
      </trkpt>
      <trkpt lat="46.32127" lon="6.09893">
        <ele>528.56</ele>
        <time>2015-09-02T16:05:06Z</time>
      </trkpt>
      <trkpt lat="46.32126" lon="6.09889">
        <ele>528.74</ele>
        <time>2015-09-02T16:05:07Z</time>
      </trkpt>
      <trkpt lat="46.32127" lon="6.09883">
        <ele>528.91</ele>
        <time>2015-09-02T16:05:08Z</time>
      </trkpt>
      <trkpt lat="46.32127" lon="6.09878">
        <ele>529.13</ele>
        <time>2015-09-02T16:05:09Z</time>
      </trkpt>
      <trkpt lat="46.32128" lon="6.09872">
        <ele>529.17</ele>
        <time>2015-09-02T16:05:10Z</time>
      </trkpt>
      <trkpt lat="46.32128" lon="6.09865">
        <ele>529.36</ele>
        <time>2015-09-02T16:05:11Z</time>
      </trkpt>
      <trkpt lat="46.32128" lon="6.09859">
        <ele>529.49</ele>
        <time>2015-09-02T16:05:12Z</time>
      </trkpt>
      <trkpt lat="46.32129" lon="6.09854">
        <ele>529.83</ele>
        <time>2015-09-02T16:05:13Z</time>
      </trkpt>
      <trkpt lat="46.32129" lon="6.09848">
        <ele>530.02</ele>
        <time>2015-09-02T16:05:14Z</time>
      </trkpt>
      <trkpt lat="46.3213" lon="6.09841">
        <ele>530.34</ele>
        <time>2015-09-02T16:05:15Z</time>
      </trkpt>
      <trkpt lat="46.3213" lon="6.09834">
        <ele>530.48</ele>
        <time>2015-09-02T16:05:16Z</time>
      </trkpt>
      <trkpt lat="46.3213" lon="6.09826">
        <ele>530.75</ele>
        <time>2015-09-02T16:05:17Z</time>
      </trkpt>
      <trkpt lat="46.3213" lon="6.09819">
        <ele>530.75</ele>
        <time>2015-09-02T16:05:18Z</time>
      </trkpt>
      <trkpt lat="46.3213" lon="6.09812">
        <ele>530.88</ele>
        <time>2015-09-02T16:05:19Z</time>
      </trkpt>
      <trkpt lat="46.32129" lon="6.09805">
        <ele>531</ele>
        <time>2015-09-02T16:05:20Z</time>
      </trkpt>
      <trkpt lat="46.32128" lon="6.09798">
        <ele>531.05</ele>
        <time>2015-09-02T16:05:21Z</time>
      </trkpt>
      <trkpt lat="46.32107" lon="6.09704">
        <ele>532.61</ele>
        <time>2015-09-02T16:05:35Z</time>
      </trkpt>
      <trkpt lat="46.32105" lon="6.09697">
        <ele>532.68</ele>
        <time>2015-09-02T16:05:36Z</time>
      </trkpt>
      <trkpt lat="46.32104" lon="6.09691">
        <ele>532.78</ele>
        <time>2015-09-02T16:05:37Z</time>
      </trkpt>
      <trkpt lat="46.32103" lon="6.09679">
        <ele>532.79</ele>
        <time>2015-09-02T16:05:39Z</time>
      </trkpt>
      <trkpt lat="46.32103" lon="6.09666">
        <ele>532.9</ele>
        <time>2015-09-02T16:05:41Z</time>
      </trkpt>
      <trkpt lat="46.32106" lon="6.096">
        <ele>535.67</ele>
        <time>2015-09-02T16:05:52Z</time>
      </trkpt>
      <trkpt lat="46.32105" lon="6.09594">
        <ele>535.77</ele>
        <time>2015-09-02T16:05:53Z</time>
      </trkpt>
      <trkpt lat="46.32098" lon="6.09563">
        <ele>536.79</ele>
        <time>2015-09-02T16:05:58Z</time>
      </trkpt>
      <trkpt lat="46.32099" lon="6.09557">
        <ele>537.13</ele>
        <time>2015-09-02T16:05:59Z</time>
      </trkpt>
      <trkpt lat="46.32099" lon="6.0955">
        <ele>537.38</ele>
        <time>2015-09-02T16:06:00Z</time>
      </trkpt>
      <trkpt lat="46.321" lon="6.09544">
        <ele>537.59</ele>
        <time>2015-09-02T16:06:01Z</time>
      </trkpt>
      <trkpt lat="46.32102" lon="6.09538">
        <ele>537.96</ele>
        <time>2015-09-02T16:06:02Z</time>
      </trkpt>
      <trkpt lat="46.32104" lon="6.09532">
        <ele>538.36</ele>
        <time>2015-09-02T16:06:03Z</time>
      </trkpt>
      <trkpt lat="46.32106" lon="6.09526">
        <ele>538.56</ele>
        <time>2015-09-02T16:06:04Z</time>
      </trkpt>
      <trkpt lat="46.32108" lon="6.09521">
        <ele>538.73</ele>
        <time>2015-09-02T16:06:05Z</time>
      </trkpt>
      <trkpt lat="46.32111" lon="6.09515">
        <ele>538.81</ele>
        <time>2015-09-02T16:06:06Z</time>
      </trkpt>
      <trkpt lat="46.32161" lon="6.09435">
        <ele>539.44</ele>
        <time>2015-09-02T16:06:21Z</time>
      </trkpt>
      <trkpt lat="46.32192" lon="6.09398">
        <ele>538.86</ele>
        <time>2015-09-02T16:06:28Z</time>
      </trkpt>
      <trkpt lat="46.32201" lon="6.09379">
        <ele>538.9</ele>
        <time>2015-09-02T16:06:31Z</time>
      </trkpt>
      <trkpt lat="46.32204" lon="6.09372">
        <ele>539.06</ele>
        <time>2015-09-02T16:06:32Z</time>
      </trkpt>
      <trkpt lat="46.32205" lon="6.09365">
        <ele>539.2</ele>
        <time>2015-09-02T16:06:33Z</time>
      </trkpt>
      <trkpt lat="46.32206" lon="6.09357">
        <ele>539.37</ele>
        <time>2015-09-02T16:06:34Z</time>
      </trkpt>
      <trkpt lat="46.32207" lon="6.09342">
        <ele>539.58</ele>
        <time>2015-09-02T16:06:36Z</time>
      </trkpt>
      <trkpt lat="46.32207" lon="6.09334">
        <ele>539.71</ele>
        <time>2015-09-02T16:06:37Z</time>
      </trkpt>
      <trkpt lat="46.32206" lon="6.09325">
        <ele>539.78</ele>
        <time>2015-09-02T16:06:38Z</time>
      </trkpt>
      <trkpt lat="46.32205" lon="6.09317">
        <ele>539.8</ele>
        <time>2015-09-02T16:06:39Z</time>
      </trkpt>
      <trkpt lat="46.32203" lon="6.09308">
        <ele>539.78</ele>
        <time>2015-09-02T16:06:40Z</time>
      </trkpt>
      <trkpt lat="46.32201" lon="6.093">
        <ele>539.76</ele>
        <time>2015-09-02T16:06:41Z</time>
      </trkpt>
      <trkpt lat="46.32175" lon="6.09204">
        <ele>539.4</ele>
        <time>2015-09-02T16:06:52Z</time>
      </trkpt>
      <trkpt lat="46.32172" lon="6.09195">
        <ele>539.4</ele>
        <time>2015-09-02T16:06:53Z</time>
      </trkpt>
      <trkpt lat="46.32155" lon="6.09132">
        <ele>538.97</ele>
        <time>2015-09-02T16:07:00Z</time>
      </trkpt>
      <trkpt lat="46.32154" lon="6.09121">
        <ele>538.92</ele>
        <time>2015-09-02T16:07:01Z</time>
      </trkpt>
      <trkpt lat="46.32154" lon="6.08972">
        <ele>536.44</ele>
        <time>2015-09-02T16:07:14Z</time>
      </trkpt>
      <trkpt lat="46.32126" lon="6.08832">
        <ele>535.51</ele>
        <time>2015-09-02T16:07:27Z</time>
      </trkpt>
      <trkpt lat="46.32083" lon="6.08664">
        <ele>535.96</ele>
        <time>2015-09-02T16:07:44Z</time>
      </trkpt>
      <trkpt lat="46.32043" lon="6.0852">
        <ele>534.92</ele>
        <time>2015-09-02T16:07:58Z</time>
      </trkpt>
      <trkpt lat="46.32012" lon="6.08426">
        <ele>533.87</ele>
        <time>2015-09-02T16:08:07Z</time>
      </trkpt>
      <trkpt lat="46.32008" lon="6.08415">
        <ele>533.84</ele>
        <time>2015-09-02T16:08:08Z</time>
      </trkpt>
      <trkpt lat="46.31962" lon="6.08273">
        <ele>531.38</ele>
        <time>2015-09-02T16:08:21Z</time>
      </trkpt>
      <trkpt lat="46.31915" lon="6.08195">
        <ele>530.06</ele>
        <time>2015-09-02T16:08:29Z</time>
      </trkpt>
      <trkpt lat="46.31862" lon="6.08134">
        <ele>526.86</ele>
        <time>2015-09-02T16:08:36Z</time>
      </trkpt>
      <trkpt lat="46.3183" lon="6.08096">
        <ele>525.1</ele>
        <time>2015-09-02T16:08:40Z</time>
      </trkpt>
      <trkpt lat="46.31824" lon="6.08084">
        <ele>524.57</ele>
        <time>2015-09-02T16:08:41Z</time>
      </trkpt>
      <trkpt lat="46.31818" lon="6.08072">
        <ele>524.31</ele>
        <time>2015-09-02T16:08:42Z</time>
      </trkpt>
      <trkpt lat="46.318" lon="6.08032">
        <ele>522.66</ele>
        <time>2015-09-02T16:08:45Z</time>
      </trkpt>
      <trkpt lat="46.31791" lon="6.08021">
        <ele>522.19</ele>
        <time>2015-09-02T16:08:46Z</time>
      </trkpt>
      <trkpt lat="46.31782" lon="6.08012">
        <ele>521.79</ele>
        <time>2015-09-02T16:08:47Z</time>
      </trkpt>
      <trkpt lat="46.31756" lon="6.07987">
        <ele>520.24</ele>
        <time>2015-09-02T16:08:50Z</time>
      </trkpt>
      <trkpt lat="46.31748" lon="6.07979">
        <ele>520.12</ele>
        <time>2015-09-02T16:08:51Z</time>
      </trkpt>
      <trkpt lat="46.31731" lon="6.07966">
        <ele>519.77</ele>
        <time>2015-09-02T16:08:53Z</time>
      </trkpt>
      <trkpt lat="46.31723" lon="6.07961">
        <ele>519.68</ele>
        <time>2015-09-02T16:08:54Z</time>
      </trkpt>
      <trkpt lat="46.31714" lon="6.07957">
        <ele>519.73</ele>
        <time>2015-09-02T16:08:55Z</time>
      </trkpt>
      <trkpt lat="46.31681" lon="6.07946">
        <ele>519.14</ele>
        <time>2015-09-02T16:08:59Z</time>
      </trkpt>
      <trkpt lat="46.31676" lon="6.0794">
        <ele>518.66</ele>
        <time>2015-09-02T16:09:00Z</time>
      </trkpt>
      <trkpt lat="46.31673" lon="6.07933">
        <ele>518.33</ele>
        <time>2015-09-02T16:09:01Z</time>
      </trkpt>
      <trkpt lat="46.31673" lon="6.07925">
        <ele>518.33</ele>
        <time>2015-09-02T16:09:02Z</time>
      </trkpt>
      <trkpt lat="46.31675" lon="6.07918">
        <ele>518.17</ele>
        <time>2015-09-02T16:09:03Z</time>
      </trkpt>
      <trkpt lat="46.31679" lon="6.07912">
        <ele>518.08</ele>
        <time>2015-09-02T16:09:04Z</time>
      </trkpt>
      <trkpt lat="46.31684" lon="6.07906">
        <ele>518.18</ele>
        <time>2015-09-02T16:09:05Z</time>
      </trkpt>
      <trkpt lat="46.31746" lon="6.078">
        <ele>521.29</ele>
        <time>2015-09-02T16:09:21Z</time>
      </trkpt>
      <trkpt lat="46.31763" lon="6.07769">
        <ele>522.75</ele>
        <time>2015-09-02T16:09:26Z</time>
      </trkpt>
      <trkpt lat="46.31797" lon="6.07699">
        <ele>524.73</ele>
        <time>2015-09-02T16:09:37Z</time>
      </trkpt>
      <trkpt lat="46.31804" lon="6.07688">
        <ele>525.91</ele>
        <time>2015-09-02T16:09:39Z</time>
      </trkpt>
      <trkpt lat="46.3181" lon="6.07678">
        <ele>526.21</ele>
        <time>2015-09-02T16:09:41Z</time>
      </trkpt>
      <trkpt lat="46.3182" lon="6.07662">
        <ele>527.54</ele>
        <time>2015-09-02T16:09:44Z</time>
      </trkpt>
      <trkpt lat="46.31823" lon="6.07656">
        <ele>527.89</ele>
        <time>2015-09-02T16:09:45Z</time>
      </trkpt>
      <trkpt lat="46.31826" lon="6.07651">
        <ele>528.16</ele>
        <time>2015-09-02T16:09:46Z</time>
      </trkpt>
      <trkpt lat="46.31845" lon="6.07615">
        <ele>530.01</ele>
        <time>2015-09-02T16:09:52Z</time>
      </trkpt>
      <trkpt lat="46.31848" lon="6.0761">
        <ele>530.22</ele>
        <time>2015-09-02T16:09:53Z</time>
      </trkpt>
      <trkpt lat="46.31871" lon="6.07558">
        <ele>531.94</ele>
        <time>2015-09-02T16:10:02Z</time>
      </trkpt>
      <trkpt lat="46.31893" lon="6.07506">
        <ele>533.58</ele>
        <time>2015-09-02T16:10:11Z</time>
      </trkpt>
      <trkpt lat="46.31895" lon="6.07501">
        <ele>533.73</ele>
        <time>2015-09-02T16:10:12Z</time>
      </trkpt>
      <trkpt lat="46.31947" lon="6.07413">
        <ele>534.42</ele>
        <time>2015-09-02T16:10:29Z</time>
      </trkpt>
      <trkpt lat="46.31951" lon="6.07409">
        <ele>534.38</ele>
        <time>2015-09-02T16:10:30Z</time>
      </trkpt>
      <trkpt lat="46.31955" lon="6.07405">
        <ele>534.34</ele>
        <time>2015-09-02T16:10:31Z</time>
      </trkpt>
      <trkpt lat="46.3196" lon="6.07402">
        <ele>534.31</ele>
        <time>2015-09-02T16:10:32Z</time>
      </trkpt>
      <trkpt lat="46.31963" lon="6.07396">
        <ele>534.34</ele>
        <time>2015-09-02T16:10:33Z</time>
      </trkpt>
      <trkpt lat="46.31966" lon="6.0739">
        <ele>534.44</ele>
        <time>2015-09-02T16:10:34Z</time>
      </trkpt>
      <trkpt lat="46.31967" lon="6.07383">
        <ele>534.49</ele>
        <time>2015-09-02T16:10:35Z</time>
      </trkpt>
      <trkpt lat="46.31966" lon="6.07376">
        <ele>534.6</ele>
        <time>2015-09-02T16:10:36Z</time>
      </trkpt>
      <trkpt lat="46.31964" lon="6.0737">
        <ele>534.72</ele>
        <time>2015-09-02T16:10:37Z</time>
      </trkpt>
      <trkpt lat="46.31961" lon="6.07365">
        <ele>534.72</ele>
        <time>2015-09-02T16:10:38Z</time>
      </trkpt>
      <trkpt lat="46.31957" lon="6.0736">
        <ele>534.86</ele>
        <time>2015-09-02T16:10:39Z</time>
      </trkpt>
      <trkpt lat="46.31952" lon="6.07358">
        <ele>534.98</ele>
        <time>2015-09-02T16:10:40Z</time>
      </trkpt>
      <trkpt lat="46.31947" lon="6.07356">
        <ele>535.18</ele>
        <time>2015-09-02T16:10:41Z</time>
      </trkpt>
      <trkpt lat="46.31942" lon="6.07354">
        <ele>535.34</ele>
        <time>2015-09-02T16:10:42Z</time>
      </trkpt>
      <trkpt lat="46.31936" lon="6.07352">
        <ele>535.25</ele>
        <time>2015-09-02T16:10:43Z</time>
      </trkpt>
      <trkpt lat="46.31931" lon="6.07348">
        <ele>535.25</ele>
        <time>2015-09-02T16:10:44Z</time>
      </trkpt>
      <trkpt lat="46.31927" lon="6.07343">
        <ele>535.25</ele>
        <time>2015-09-02T16:10:45Z</time>
      </trkpt>
      <trkpt lat="46.31923" lon="6.07337">
        <ele>535.19</ele>
        <time>2015-09-02T16:10:46Z</time>
      </trkpt>
      <trkpt lat="46.31919" lon="6.07331">
        <ele>534.97</ele>
        <time>2015-09-02T16:10:47Z</time>
      </trkpt>
      <trkpt lat="46.31916" lon="6.07324">
        <ele>534.79</ele>
        <time>2015-09-02T16:10:48Z</time>
      </trkpt>
      <trkpt lat="46.31912" lon="6.07317">
        <ele>534.7</ele>
        <time>2015-09-02T16:10:49Z</time>
      </trkpt>
      <trkpt lat="46.31901" lon="6.07287">
        <ele>535.24</ele>
        <time>2015-09-02T16:10:53Z</time>
      </trkpt>
      <trkpt lat="46.31899" lon="6.07279">
        <ele>535.38</ele>
        <time>2015-09-02T16:10:54Z</time>
      </trkpt>
      <trkpt lat="46.31898" lon="6.0727">
        <ele>535.55</ele>
        <time>2015-09-02T16:10:55Z</time>
      </trkpt>
      <trkpt lat="46.31898" lon="6.07261">
        <ele>535.74</ele>
        <time>2015-09-02T16:10:56Z</time>
      </trkpt>
      <trkpt lat="46.31898" lon="6.07252">
        <ele>535.75</ele>
        <time>2015-09-02T16:10:57Z</time>
      </trkpt>
      <trkpt lat="46.319" lon="6.07244">
        <ele>535.87</ele>
        <time>2015-09-02T16:10:58Z</time>
      </trkpt>
      <trkpt lat="46.31912" lon="6.07184">
        <ele>536.32</ele>
        <time>2015-09-02T16:11:05Z</time>
      </trkpt>
      <trkpt lat="46.31913" lon="6.07176">
        <ele>536.4</ele>
        <time>2015-09-02T16:11:06Z</time>
      </trkpt>
      <trkpt lat="46.31913" lon="6.07167">
        <ele>536.54</ele>
        <time>2015-09-02T16:11:07Z</time>
      </trkpt>
      <trkpt lat="46.3191" lon="6.07087">
        <ele>537.3</ele>
        <time>2015-09-02T16:11:17Z</time>
      </trkpt>
      <trkpt lat="46.31912" lon="6.07081">
        <ele>537.52</ele>
        <time>2015-09-02T16:11:18Z</time>
      </trkpt>
      <trkpt lat="46.31917" lon="6.07069">
        <ele>538.21</ele>
        <time>2015-09-02T16:11:20Z</time>
      </trkpt>
      <trkpt lat="46.3192" lon="6.07064">
        <ele>538.47</ele>
        <time>2015-09-02T16:11:21Z</time>
      </trkpt>
      <trkpt lat="46.31942" lon="6.07032">
        <ele>540.83</ele>
        <time>2015-09-02T16:11:29Z</time>
      </trkpt>
      <trkpt lat="46.31948" lon="6.07024">
        <ele>541.09</ele>
        <time>2015-09-02T16:11:31Z</time>
      </trkpt>
      <trkpt lat="46.31951" lon="6.07019">
        <ele>541.46</ele>
        <time>2015-09-02T16:11:32Z</time>
      </trkpt>
      <trkpt lat="46.31954" lon="6.07014">
        <ele>541.84</ele>
        <time>2015-09-02T16:11:33Z</time>
      </trkpt>
      <trkpt lat="46.31961" lon="6.07005">
        <ele>542.78</ele>
        <time>2015-09-02T16:11:35Z</time>
      </trkpt>
      <trkpt lat="46.31974" lon="6.06987">
        <ele>543.76</ele>
        <time>2015-09-02T16:11:40Z</time>
      </trkpt>
      <trkpt lat="46.31975" lon="6.06985">
        <ele>543.91</ele>
        <time>2015-09-02T16:11:41Z</time>
      </trkpt>
      <trkpt lat="46.31975" lon="6.06982">
        <ele>543.91</ele>
        <time>2015-09-02T16:11:42Z</time>
      </trkpt>
      <trkpt lat="46.3197" lon="6.06976">
        <ele>544.02</ele>
        <time>2015-09-02T16:11:44Z</time>
      </trkpt>
      <trkpt lat="46.31966" lon="6.06972">
        <ele>544.04</ele>
        <time>2015-09-02T16:11:45Z</time>
      </trkpt>
      <trkpt lat="46.31962" lon="6.06968">
        <ele>544.05</ele>
        <time>2015-09-02T16:11:46Z</time>
      </trkpt>
      <trkpt lat="46.31958" lon="6.06962">
        <ele>543.98</ele>
        <time>2015-09-02T16:11:47Z</time>
      </trkpt>
      <trkpt lat="46.31953" lon="6.06955">
        <ele>543.78</ele>
        <time>2015-09-02T16:11:48Z</time>
      </trkpt>
      <trkpt lat="46.31927" lon="6.06927">
        <ele>542.61</ele>
        <time>2015-09-02T16:11:53Z</time>
      </trkpt>
      <trkpt lat="46.31921" lon="6.06922">
        <ele>542.15</ele>
        <time>2015-09-02T16:11:54Z</time>
      </trkpt>
      <trkpt lat="46.31885" lon="6.06898">
        <ele>540.8</ele>
        <time>2015-09-02T16:11:59Z</time>
      </trkpt>
      <trkpt lat="46.31871" lon="6.06885">
        <ele>540.1</ele>
        <time>2015-09-02T16:12:01Z</time>
      </trkpt>
      <trkpt lat="46.31865" lon="6.06881">
        <ele>539.74</ele>
        <time>2015-09-02T16:12:02Z</time>
      </trkpt>
      <trkpt lat="46.31859" lon="6.06879">
        <ele>539.43</ele>
        <time>2015-09-02T16:12:03Z</time>
      </trkpt>
      <trkpt lat="46.31855" lon="6.06877">
        <ele>539.14</ele>
        <time>2015-09-02T16:12:04Z</time>
      </trkpt>
      <trkpt lat="46.31851" lon="6.06872">
        <ele>538.86</ele>
        <time>2015-09-02T16:12:05Z</time>
      </trkpt>
      <trkpt lat="46.31848" lon="6.06866">
        <ele>538.53</ele>
        <time>2015-09-02T16:12:06Z</time>
      </trkpt>
      <trkpt lat="46.31844" lon="6.06858">
        <ele>538.17</ele>
        <time>2015-09-02T16:12:07Z</time>
      </trkpt>
      <trkpt lat="46.3184" lon="6.06852">
        <ele>537.83</ele>
        <time>2015-09-02T16:12:08Z</time>
      </trkpt>
      <trkpt lat="46.31828" lon="6.06829">
        <ele>537.49</ele>
        <time>2015-09-02T16:12:11Z</time>
      </trkpt>
      <trkpt lat="46.31825" lon="6.06821">
        <ele>537.47</ele>
        <time>2015-09-02T16:12:12Z</time>
      </trkpt>
      <trkpt lat="46.31822" lon="6.06812">
        <ele>537.53</ele>
        <time>2015-09-02T16:12:13Z</time>
      </trkpt>
      <trkpt lat="46.31818" lon="6.06803">
        <ele>537.49</ele>
        <time>2015-09-02T16:12:14Z</time>
      </trkpt>
      <trkpt lat="46.31815" lon="6.06794">
        <ele>537.49</ele>
        <time>2015-09-02T16:12:15Z</time>
      </trkpt>
      <trkpt lat="46.31811" lon="6.06786">
        <ele>537.54</ele>
        <time>2015-09-02T16:12:16Z</time>
      </trkpt>
      <trkpt lat="46.31796" lon="6.06754">
        <ele>537.44</ele>
        <time>2015-09-02T16:12:20Z</time>
      </trkpt>
      <trkpt lat="46.31795" lon="6.06745">
        <ele>537.48</ele>
        <time>2015-09-02T16:12:21Z</time>
      </trkpt>
      <trkpt lat="46.31797" lon="6.06727">
        <ele>537.62</ele>
        <time>2015-09-02T16:12:23Z</time>
      </trkpt>
      <trkpt lat="46.31802" lon="6.06712">
        <ele>537.82</ele>
        <time>2015-09-02T16:12:25Z</time>
      </trkpt>
      <trkpt lat="46.31822" lon="6.0666">
        <ele>538.95</ele>
        <time>2015-09-02T16:12:32Z</time>
      </trkpt>
      <trkpt lat="46.31824" lon="6.06652">
        <ele>539.23</ele>
        <time>2015-09-02T16:12:33Z</time>
      </trkpt>
      <trkpt lat="46.31824" lon="6.06644">
        <ele>539.46</ele>
        <time>2015-09-02T16:12:34Z</time>
      </trkpt>
      <trkpt lat="46.31825" lon="6.06621">
        <ele>540.12</ele>
        <time>2015-09-02T16:12:37Z</time>
      </trkpt>
      <trkpt lat="46.31824" lon="6.06612">
        <ele>540.46</ele>
        <time>2015-09-02T16:12:38Z</time>
      </trkpt>
      <trkpt lat="46.31823" lon="6.06595">
        <ele>540.76</ele>
        <time>2015-09-02T16:12:40Z</time>
      </trkpt>
      <trkpt lat="46.31817" lon="6.06515">
        <ele>540.94</ele>
        <time>2015-09-02T16:12:50Z</time>
      </trkpt>
      <trkpt lat="46.31818" lon="6.06507">
        <ele>540.94</ele>
        <time>2015-09-02T16:12:51Z</time>
      </trkpt>
      <trkpt lat="46.3182" lon="6.06499">
        <ele>540.94</ele>
        <time>2015-09-02T16:12:52Z</time>
      </trkpt>
      <trkpt lat="46.31822" lon="6.06492">
        <ele>540.9</ele>
        <time>2015-09-02T16:12:53Z</time>
      </trkpt>
      <trkpt lat="46.31825" lon="6.06486">
        <ele>540.88</ele>
        <time>2015-09-02T16:12:54Z</time>
      </trkpt>
      <trkpt lat="46.31832" lon="6.06475">
        <ele>540.91</ele>
        <time>2015-09-02T16:12:56Z</time>
      </trkpt>
      <trkpt lat="46.31835" lon="6.0647">
        <ele>540.91</ele>
        <time>2015-09-02T16:12:57Z</time>
      </trkpt>
      <trkpt lat="46.31838" lon="6.06464">
        <ele>540.98</ele>
        <time>2015-09-02T16:12:58Z</time>
      </trkpt>
      <trkpt lat="46.31842" lon="6.06453">
        <ele>541.03</ele>
        <time>2015-09-02T16:13:00Z</time>
      </trkpt>
      <trkpt lat="46.31843" lon="6.06448">
        <ele>541.1</ele>
        <time>2015-09-02T16:13:01Z</time>
      </trkpt>
      <trkpt lat="46.31847" lon="6.06435">
        <ele>541.3</ele>
        <time>2015-09-02T16:13:03Z</time>
      </trkpt>
      <trkpt lat="46.31852" lon="6.06415">
        <ele>541.87</ele>
        <time>2015-09-02T16:13:06Z</time>
      </trkpt>
      <trkpt lat="46.31852" lon="6.06407">
        <ele>542.01</ele>
        <time>2015-09-02T16:13:07Z</time>
      </trkpt>
      <trkpt lat="46.3185" lon="6.06399">
        <ele>542.14</ele>
        <time>2015-09-02T16:13:08Z</time>
      </trkpt>
      <trkpt lat="46.31848" lon="6.06392">
        <ele>542.18</ele>
        <time>2015-09-02T16:13:09Z</time>
      </trkpt>
      <trkpt lat="46.31845" lon="6.06385">
        <ele>542.3</ele>
        <time>2015-09-02T16:13:10Z</time>
      </trkpt>
      <trkpt lat="46.31843" lon="6.06376">
        <ele>542.3</ele>
        <time>2015-09-02T16:13:11Z</time>
      </trkpt>
      <trkpt lat="46.31841" lon="6.06368">
        <ele>542.37</ele>
        <time>2015-09-02T16:13:12Z</time>
      </trkpt>
      <trkpt lat="46.31841" lon="6.06359">
        <ele>542.4</ele>
        <time>2015-09-02T16:13:13Z</time>
      </trkpt>
      <trkpt lat="46.31841" lon="6.0635">
        <ele>542.47</ele>
        <time>2015-09-02T16:13:14Z</time>
      </trkpt>
      <trkpt lat="46.31823" lon="6.06213">
        <ele>542.49</ele>
        <time>2015-09-02T16:13:29Z</time>
      </trkpt>
      <trkpt lat="46.3177" lon="6.0607">
        <ele>541.93</ele>
        <time>2015-09-02T16:13:45Z</time>
      </trkpt>
      <trkpt lat="46.317" lon="6.05894">
        <ele>542.53</ele>
        <time>2015-09-02T16:14:05Z</time>
      </trkpt>
      <trkpt lat="46.31684" lon="6.05853">
        <ele>543.02</ele>
        <time>2015-09-02T16:14:10Z</time>
      </trkpt>
      <trkpt lat="46.3168" lon="6.05846">
        <ele>543.12</ele>
        <time>2015-09-02T16:14:11Z</time>
      </trkpt>
      <trkpt lat="46.31628" lon="6.05695">
        <ele>545.89</ele>
        <time>2015-09-02T16:14:30Z</time>
      </trkpt>
      <trkpt lat="46.31593" lon="6.05557">
        <ele>548.35</ele>
        <time>2015-09-02T16:14:47Z</time>
      </trkpt>
      <trkpt lat="46.31587" lon="6.05514">
        <ele>549.23</ele>
        <time>2015-09-02T16:14:52Z</time>
      </trkpt>
      <trkpt lat="46.31586" lon="6.05506">
        <ele>549.23</ele>
        <time>2015-09-02T16:14:53Z</time>
      </trkpt>
      <trkpt lat="46.31591" lon="6.05397">
        <ele>552.47</ele>
        <time>2015-09-02T16:15:07Z</time>
      </trkpt>
      <trkpt lat="46.31608" lon="6.0532">
        <ele>555.48</ele>
        <time>2015-09-02T16:15:18Z</time>
      </trkpt>
      <trkpt lat="46.31617" lon="6.0528">
        <ele>556.53</ele>
        <time>2015-09-02T16:15:24Z</time>
      </trkpt>
      <trkpt lat="46.31618" lon="6.05274">
        <ele>556.75</ele>
        <time>2015-09-02T16:15:25Z</time>
      </trkpt>
      <trkpt lat="46.31627" lon="6.05237">
        <ele>557.96</ele>
        <time>2015-09-02T16:15:31Z</time>
      </trkpt>
      <trkpt lat="46.31644" lon="6.05161">
        <ele>560.55</ele>
        <time>2015-09-02T16:15:45Z</time>
      </trkpt>
      <trkpt lat="46.31645" lon="6.05156">
        <ele>560.76</ele>
        <time>2015-09-02T16:15:46Z</time>
      </trkpt>
      <trkpt lat="46.31645" lon="6.05152">
        <ele>560.97</ele>
        <time>2015-09-02T16:15:47Z</time>
      </trkpt>
      <trkpt lat="46.31646" lon="6.05149">
        <ele>561.07</ele>
        <time>2015-09-02T16:15:48Z</time>
      </trkpt>
      <trkpt lat="46.31645" lon="6.05146">
        <ele>561.25</ele>
        <time>2015-09-02T16:15:49Z</time>
      </trkpt>
      <trkpt lat="46.31644" lon="6.05144">
        <ele>561.51</ele>
        <time>2015-09-02T16:15:50Z</time>
      </trkpt>
      <trkpt lat="46.31642" lon="6.05143">
        <ele>561.79</ele>
        <time>2015-09-02T16:15:51Z</time>
      </trkpt>
      <trkpt lat="46.3164" lon="6.05142">
        <ele>562.14</ele>
        <time>2015-09-02T16:15:52Z</time>
      </trkpt>
      <trkpt lat="46.31638" lon="6.05141">
        <ele>562.37</ele>
        <time>2015-09-02T16:15:53Z</time>
      </trkpt>
      <trkpt lat="46.31637" lon="6.05141">
        <ele>562.58</ele>
        <time>2015-09-02T16:15:54Z</time>
      </trkpt>
      <trkpt lat="46.31635" lon="6.0514">
        <ele>562.68</ele>
        <time>2015-09-02T16:15:55Z</time>
      </trkpt>
      <trkpt lat="46.31633" lon="6.05139">
        <ele>562.7</ele>
        <time>2015-09-02T16:15:56Z</time>
      </trkpt>
      <trkpt lat="46.31632" lon="6.05139">
        <ele>562.57</ele>
        <time>2015-09-02T16:15:57Z</time>
      </trkpt>
      <trkpt lat="46.3163" lon="6.05138">
        <ele>562.51</ele>
        <time>2015-09-02T16:15:58Z</time>
      </trkpt>
      <trkpt lat="46.31629" lon="6.05138">
        <ele>562.41</ele>
        <time>2015-09-02T16:15:59Z</time>
      </trkpt>
      <trkpt lat="46.31625" lon="6.05136">
        <ele>562.33</ele>
        <time>2015-09-02T16:16:01Z</time>
      </trkpt>
      <trkpt lat="46.31623" lon="6.05135">
        <ele>562.23</ele>
        <time>2015-09-02T16:16:02Z</time>
      </trkpt>
      <trkpt lat="46.3162" lon="6.05133">
        <ele>562.24</ele>
        <time>2015-09-02T16:16:03Z</time>
      </trkpt>
      <trkpt lat="46.31617" lon="6.0513">
        <ele>562.24</ele>
        <time>2015-09-02T16:16:04Z</time>
      </trkpt>
      <trkpt lat="46.31614" lon="6.05127">
        <ele>562.24</ele>
        <time>2015-09-02T16:16:05Z</time>
      </trkpt>
      <trkpt lat="46.3161" lon="6.05123">
        <ele>562.24</ele>
        <time>2015-09-02T16:16:06Z</time>
      </trkpt>
      <trkpt lat="46.31607" lon="6.05121">
        <ele>562.14</ele>
        <time>2015-09-02T16:16:07Z</time>
      </trkpt>
      <trkpt lat="46.31602" lon="6.05119">
        <ele>562.12</ele>
        <time>2015-09-02T16:16:08Z</time>
      </trkpt>
      <trkpt lat="46.31598" lon="6.05118">
        <ele>562.05</ele>
        <time>2015-09-02T16:16:09Z</time>
      </trkpt>
      <trkpt lat="46.31594" lon="6.05115">
        <ele>561.81</ele>
        <time>2015-09-02T16:16:10Z</time>
      </trkpt>
      <trkpt lat="46.3159" lon="6.05113">
        <ele>561.63</ele>
        <time>2015-09-02T16:16:11Z</time>
      </trkpt>
      <trkpt lat="46.31585" lon="6.05111">
        <ele>561.64</ele>
        <time>2015-09-02T16:16:12Z</time>
      </trkpt>
      <trkpt lat="46.3158" lon="6.05107">
        <ele>561.65</ele>
        <time>2015-09-02T16:16:13Z</time>
      </trkpt>
      <trkpt lat="46.31574" lon="6.05102">
        <ele>561.61</ele>
        <time>2015-09-02T16:16:14Z</time>
      </trkpt>
      <trkpt lat="46.31568" lon="6.05098">
        <ele>561.53</ele>
        <time>2015-09-02T16:16:15Z</time>
      </trkpt>
      <trkpt lat="46.31561" lon="6.05096">
        <ele>561.48</ele>
        <time>2015-09-02T16:16:16Z</time>
      </trkpt>
      <trkpt lat="46.31465" lon="6.05057">
        <ele>560.39</ele>
        <time>2015-09-02T16:16:28Z</time>
      </trkpt>
      <trkpt lat="46.31456" lon="6.05054">
        <ele>560.24</ele>
        <time>2015-09-02T16:16:29Z</time>
      </trkpt>
      <trkpt lat="46.31337" lon="6.05009">
        <ele>557.42</ele>
        <time>2015-09-02T16:16:42Z</time>
      </trkpt>
      <trkpt lat="46.3121" lon="6.0496">
        <ele>556.34</ele>
        <time>2015-09-02T16:16:56Z</time>
      </trkpt>
      <trkpt lat="46.31176" lon="6.04947">
        <ele>555.82</ele>
        <time>2015-09-02T16:17:00Z</time>
      </trkpt>
      <trkpt lat="46.31145" lon="6.04932">
        <ele>555.57</ele>
        <time>2015-09-02T16:17:04Z</time>
      </trkpt>
      <trkpt lat="46.31138" lon="6.04925">
        <ele>555.4</ele>
        <time>2015-09-02T16:17:05Z</time>
      </trkpt>
      <trkpt lat="46.31133" lon="6.04917">
        <ele>555.25</ele>
        <time>2015-09-02T16:17:06Z</time>
      </trkpt>
      <trkpt lat="46.31128" lon="6.04908">
        <ele>555.05</ele>
        <time>2015-09-02T16:17:07Z</time>
      </trkpt>
      <trkpt lat="46.31122" lon="6.049">
        <ele>554.83</ele>
        <time>2015-09-02T16:17:08Z</time>
      </trkpt>
      <trkpt lat="46.31116" lon="6.04893">
        <ele>554.67</ele>
        <time>2015-09-02T16:17:09Z</time>
      </trkpt>
      <trkpt lat="46.3111" lon="6.04884">
        <ele>554.56</ele>
        <time>2015-09-02T16:17:10Z</time>
      </trkpt>
      <trkpt lat="46.31104" lon="6.04877">
        <ele>554.38</ele>
        <time>2015-09-02T16:17:11Z</time>
      </trkpt>
      <trkpt lat="46.31097" lon="6.04873">
        <ele>554.42</ele>
        <time>2015-09-02T16:17:12Z</time>
      </trkpt>
      <trkpt lat="46.31074" lon="6.04861">
        <ele>554.45</ele>
        <time>2015-09-02T16:17:15Z</time>
      </trkpt>
      <trkpt lat="46.3106" lon="6.04846">
        <ele>554.02</ele>
        <time>2015-09-02T16:17:17Z</time>
      </trkpt>
      <trkpt lat="46.31054" lon="6.04838">
        <ele>553.88</ele>
        <time>2015-09-02T16:17:18Z</time>
      </trkpt>
      <trkpt lat="46.30994" lon="6.04726">
        <ele>553.17</ele>
        <time>2015-09-02T16:17:30Z</time>
      </trkpt>
      <trkpt lat="46.30927" lon="6.04612">
        <ele>552.91</ele>
        <time>2015-09-02T16:17:43Z</time>
      </trkpt>
      <trkpt lat="46.30862" lon="6.04506">
        <ele>549.67</ele>
        <time>2015-09-02T16:17:54Z</time>
      </trkpt>
      <trkpt lat="46.30855" lon="6.04494">
        <ele>549.4</ele>
        <time>2015-09-02T16:17:55Z</time>
      </trkpt>
      <trkpt lat="46.30841" lon="6.04474">
        <ele>548.39</ele>
        <time>2015-09-02T16:17:57Z</time>
      </trkpt>
      <trkpt lat="46.30833" lon="6.04465">
        <ele>547.87</ele>
        <time>2015-09-02T16:17:58Z</time>
      </trkpt>
      <trkpt lat="46.30824" lon="6.04459">
        <ele>547.49</ele>
        <time>2015-09-02T16:17:59Z</time>
      </trkpt>
      <trkpt lat="46.30816" lon="6.04453">
        <ele>547.18</ele>
        <time>2015-09-02T16:18:00Z</time>
      </trkpt>
      <trkpt lat="46.30807" lon="6.0445">
        <ele>547.03</ele>
        <time>2015-09-02T16:18:01Z</time>
      </trkpt>
      <trkpt lat="46.30798" lon="6.04447">
        <ele>546.91</ele>
        <time>2015-09-02T16:18:02Z</time>
      </trkpt>
      <trkpt lat="46.30789" lon="6.04446">
        <ele>546.84</ele>
        <time>2015-09-02T16:18:03Z</time>
      </trkpt>
      <trkpt lat="46.3078" lon="6.04447">
        <ele>546.71</ele>
        <time>2015-09-02T16:18:04Z</time>
      </trkpt>
      <trkpt lat="46.30771" lon="6.04448">
        <ele>546.64</ele>
        <time>2015-09-02T16:18:05Z</time>
      </trkpt>
      <trkpt lat="46.30713" lon="6.04453">
        <ele>547.03</ele>
        <time>2015-09-02T16:18:12Z</time>
      </trkpt>
      <trkpt lat="46.30705" lon="6.04451">
        <ele>547.13</ele>
        <time>2015-09-02T16:18:13Z</time>
      </trkpt>
      <trkpt lat="46.30616" lon="6.04414">
        <ele>549.79</ele>
        <time>2015-09-02T16:18:25Z</time>
      </trkpt>
      <trkpt lat="46.30539" lon="6.04379">
        <ele>550.07</ele>
        <time>2015-09-02T16:18:36Z</time>
      </trkpt>
      <trkpt lat="46.30518" lon="6.04369">
        <ele>549.9</ele>
        <time>2015-09-02T16:18:39Z</time>
      </trkpt>
      <trkpt lat="46.30393" lon="6.04314">
        <ele>550.35</ele>
        <time>2015-09-02T16:18:57Z</time>
      </trkpt>
      <trkpt lat="46.30282" lon="6.04272">
        <ele>550.47</ele>
        <time>2015-09-02T16:19:12Z</time>
      </trkpt>
      <trkpt lat="46.30276" lon="6.04268">
        <ele>550.35</ele>
        <time>2015-09-02T16:19:13Z</time>
      </trkpt>
      <trkpt lat="46.30256" lon="6.04252">
        <ele>549.96</ele>
        <time>2015-09-02T16:19:16Z</time>
      </trkpt>
      <trkpt lat="46.3017" lon="6.04158">
        <ele>547.52</ele>
        <time>2015-09-02T16:19:29Z</time>
      </trkpt>
      <trkpt lat="46.30151" lon="6.04132">
        <ele>547.12</ele>
        <time>2015-09-02T16:19:32Z</time>
      </trkpt>
      <trkpt lat="46.30097" lon="6.04055">
        <ele>546.64</ele>
        <time>2015-09-02T16:19:41Z</time>
      </trkpt>
      <trkpt lat="46.3009" lon="6.04049">
        <ele>546.64</ele>
        <time>2015-09-02T16:19:42Z</time>
      </trkpt>
      <trkpt lat="46.30083" lon="6.04043">
        <ele>546.67</ele>
        <time>2015-09-02T16:19:43Z</time>
      </trkpt>
      <trkpt lat="46.30076" lon="6.04039">
        <ele>546.68</ele>
        <time>2015-09-02T16:19:44Z</time>
      </trkpt>
      <trkpt lat="46.30069" lon="6.04038">
        <ele>546.68</ele>
        <time>2015-09-02T16:19:45Z</time>
      </trkpt>
      <trkpt lat="46.30061" lon="6.04038">
        <ele>546.77</ele>
        <time>2015-09-02T16:19:46Z</time>
      </trkpt>
      <trkpt lat="46.30054" lon="6.0404">
        <ele>546.92</ele>
        <time>2015-09-02T16:19:47Z</time>
      </trkpt>
      <trkpt lat="46.30047" lon="6.04042">
        <ele>547.09</ele>
        <time>2015-09-02T16:19:48Z</time>
      </trkpt>
      <trkpt lat="46.3004" lon="6.04045">
        <ele>547.08</ele>
        <time>2015-09-02T16:19:49Z</time>
      </trkpt>
      <trkpt lat="46.30035" lon="6.04049">
        <ele>547.04</ele>
        <time>2015-09-02T16:19:50Z</time>
      </trkpt>
      <trkpt lat="46.30031" lon="6.04053">
        <ele>547.09</ele>
        <time>2015-09-02T16:19:51Z</time>
      </trkpt>
      <trkpt lat="46.30026" lon="6.04058">
        <ele>547.11</ele>
        <time>2015-09-02T16:19:52Z</time>
      </trkpt>
      <trkpt lat="46.30021" lon="6.04064">
        <ele>546.9</ele>
        <time>2015-09-02T16:19:53Z</time>
      </trkpt>
      <trkpt lat="46.30009" lon="6.04079">
        <ele>546.61</ele>
        <time>2015-09-02T16:19:55Z</time>
      </trkpt>
      <trkpt lat="46.30003" lon="6.04088">
        <ele>546.61</ele>
        <time>2015-09-02T16:19:56Z</time>
      </trkpt>
      <trkpt lat="46.29997" lon="6.04095">
        <ele>546.69</ele>
        <time>2015-09-02T16:19:57Z</time>
      </trkpt>
      <trkpt lat="46.29985" lon="6.04104">
        <ele>546.72</ele>
        <time>2015-09-02T16:19:59Z</time>
      </trkpt>
      <trkpt lat="46.29977" lon="6.04107">
        <ele>546.77</ele>
        <time>2015-09-02T16:20:00Z</time>
      </trkpt>
      <trkpt lat="46.29969" lon="6.04108">
        <ele>546.86</ele>
        <time>2015-09-02T16:20:01Z</time>
      </trkpt>
      <trkpt lat="46.29961" lon="6.04108">
        <ele>546.96</ele>
        <time>2015-09-02T16:20:02Z</time>
      </trkpt>
      <trkpt lat="46.29954" lon="6.04105">
        <ele>547.02</ele>
        <time>2015-09-02T16:20:03Z</time>
      </trkpt>
      <trkpt lat="46.29946" lon="6.04103">
        <ele>547.14</ele>
        <time>2015-09-02T16:20:04Z</time>
      </trkpt>
      <trkpt lat="46.29939" lon="6.04099">
        <ele>547.31</ele>
        <time>2015-09-02T16:20:05Z</time>
      </trkpt>
      <trkpt lat="46.29931" lon="6.04094">
        <ele>547.5</ele>
        <time>2015-09-02T16:20:06Z</time>
      </trkpt>
      <trkpt lat="46.29894" lon="6.04059">
        <ele>547.87</ele>
        <time>2015-09-02T16:20:12Z</time>
      </trkpt>
      <trkpt lat="46.29889" lon="6.04052">
        <ele>547.91</ele>
        <time>2015-09-02T16:20:13Z</time>
      </trkpt>
      <trkpt lat="46.29869" lon="6.04011">
        <ele>548</ele>
        <time>2015-09-02T16:20:18Z</time>
      </trkpt>
      <trkpt lat="46.29866" lon="6.04002">
        <ele>548.06</ele>
        <time>2015-09-02T16:20:19Z</time>
      </trkpt>
      <trkpt lat="46.29864" lon="6.03992">
        <ele>548.13</ele>
        <time>2015-09-02T16:20:20Z</time>
      </trkpt>
      <trkpt lat="46.29831" lon="6.03859">
        <ele>547.41</ele>
        <time>2015-09-02T16:20:33Z</time>
      </trkpt>
      <trkpt lat="46.2978" lon="6.03757">
        <ele>547.15</ele>
        <time>2015-09-02T16:20:44Z</time>
      </trkpt>
      <trkpt lat="46.29776" lon="6.03747">
        <ele>546.99</ele>
        <time>2015-09-02T16:20:45Z</time>
      </trkpt>
      <trkpt lat="46.29759" lon="6.03699">
        <ele>546.42</ele>
        <time>2015-09-02T16:20:50Z</time>
      </trkpt>
      <trkpt lat="46.29754" lon="6.03678">
        <ele>546.27</ele>
        <time>2015-09-02T16:20:52Z</time>
      </trkpt>
      <trkpt lat="46.2975" lon="6.03625">
        <ele>546.36</ele>
        <time>2015-09-02T16:20:57Z</time>
      </trkpt>
      <trkpt lat="46.29748" lon="6.03615">
        <ele>546.39</ele>
        <time>2015-09-02T16:20:58Z</time>
      </trkpt>
      <trkpt lat="46.29746" lon="6.03606">
        <ele>546.44</ele>
        <time>2015-09-02T16:20:59Z</time>
      </trkpt>
      <trkpt lat="46.29742" lon="6.03596">
        <ele>546.46</ele>
        <time>2015-09-02T16:21:00Z</time>
      </trkpt>
      <trkpt lat="46.29739" lon="6.03588">
        <ele>546.5</ele>
        <time>2015-09-02T16:21:01Z</time>
      </trkpt>
      <trkpt lat="46.29735" lon="6.0358">
        <ele>546.69</ele>
        <time>2015-09-02T16:21:02Z</time>
      </trkpt>
      <trkpt lat="46.2973" lon="6.03573">
        <ele>546.84</ele>
        <time>2015-09-02T16:21:03Z</time>
      </trkpt>
      <trkpt lat="46.29717" lon="6.03555">
        <ele>547.61</ele>
        <time>2015-09-02T16:21:06Z</time>
      </trkpt>
      <trkpt lat="46.29706" lon="6.03537">
        <ele>548.43</ele>
        <time>2015-09-02T16:21:09Z</time>
      </trkpt>
      <trkpt lat="46.2969" lon="6.03504">
        <ele>551.06</ele>
        <time>2015-09-02T16:21:16Z</time>
      </trkpt>
      <trkpt lat="46.29687" lon="6.03495">
        <ele>551.56</ele>
        <time>2015-09-02T16:21:18Z</time>
      </trkpt>
      <trkpt lat="46.29685" lon="6.0349">
        <ele>551.71</ele>
        <time>2015-09-02T16:21:19Z</time>
      </trkpt>
      <trkpt lat="46.29684" lon="6.03486">
        <ele>552.05</ele>
        <time>2015-09-02T16:21:20Z</time>
      </trkpt>
      <trkpt lat="46.29683" lon="6.03481">
        <ele>552.05</ele>
        <time>2015-09-02T16:21:21Z</time>
      </trkpt>
      <trkpt lat="46.29681" lon="6.03472">
        <ele>552.82</ele>
        <time>2015-09-02T16:21:23Z</time>
      </trkpt>
      <trkpt lat="46.29681" lon="6.03467">
        <ele>553.08</ele>
        <time>2015-09-02T16:21:24Z</time>
      </trkpt>
      <trkpt lat="46.2968" lon="6.03462">
        <ele>553.21</ele>
        <time>2015-09-02T16:21:25Z</time>
      </trkpt>
      <trkpt lat="46.2968" lon="6.03457">
        <ele>553.35</ele>
        <time>2015-09-02T16:21:26Z</time>
      </trkpt>
      <trkpt lat="46.2968" lon="6.03452">
        <ele>553.57</ele>
        <time>2015-09-02T16:21:27Z</time>
      </trkpt>
      <trkpt lat="46.29679" lon="6.03447">
        <ele>553.84</ele>
        <time>2015-09-02T16:21:28Z</time>
      </trkpt>
      <trkpt lat="46.29678" lon="6.03443">
        <ele>554.17</ele>
        <time>2015-09-02T16:21:29Z</time>
      </trkpt>
      <trkpt lat="46.29677" lon="6.03438">
        <ele>554.54</ele>
        <time>2015-09-02T16:21:30Z</time>
      </trkpt>
      <trkpt lat="46.29676" lon="6.03433">
        <ele>554.98</ele>
        <time>2015-09-02T16:21:31Z</time>
      </trkpt>
      <trkpt lat="46.29675" lon="6.03428">
        <ele>555.49</ele>
        <time>2015-09-02T16:21:32Z</time>
      </trkpt>
      <trkpt lat="46.29675" lon="6.03424">
        <ele>555.9</ele>
        <time>2015-09-02T16:21:33Z</time>
      </trkpt>
      <trkpt lat="46.29674" lon="6.03418">
        <ele>556.17</ele>
        <time>2015-09-02T16:21:34Z</time>
      </trkpt>
      <trkpt lat="46.29673" lon="6.03414">
        <ele>556.4</ele>
        <time>2015-09-02T16:21:35Z</time>
      </trkpt>
      <trkpt lat="46.29672" lon="6.03409">
        <ele>556.65</ele>
        <time>2015-09-02T16:21:36Z</time>
      </trkpt>
      <trkpt lat="46.29672" lon="6.03404">
        <ele>556.86</ele>
        <time>2015-09-02T16:21:37Z</time>
      </trkpt>
      <trkpt lat="46.29671" lon="6.03395">
        <ele>557.19</ele>
        <time>2015-09-02T16:21:39Z</time>
      </trkpt>
      <trkpt lat="46.2967" lon="6.0339">
        <ele>557.48</ele>
        <time>2015-09-02T16:21:40Z</time>
      </trkpt>
      <trkpt lat="46.29669" lon="6.03386">
        <ele>557.74</ele>
        <time>2015-09-02T16:21:41Z</time>
      </trkpt>
      <trkpt lat="46.29668" lon="6.03375">
        <ele>558.29</ele>
        <time>2015-09-02T16:21:43Z</time>
      </trkpt>
      <trkpt lat="46.29668" lon="6.0337">
        <ele>558.52</ele>
        <time>2015-09-02T16:21:44Z</time>
      </trkpt>
      <trkpt lat="46.29667" lon="6.03365">
        <ele>558.71</ele>
        <time>2015-09-02T16:21:45Z</time>
      </trkpt>
      <trkpt lat="46.29666" lon="6.0336">
        <ele>558.95</ele>
        <time>2015-09-02T16:21:46Z</time>
      </trkpt>
      <trkpt lat="46.29666" lon="6.03355">
        <ele>559.23</ele>
        <time>2015-09-02T16:21:47Z</time>
      </trkpt>
      <trkpt lat="46.29665" lon="6.03349">
        <ele>559.37</ele>
        <time>2015-09-02T16:21:48Z</time>
      </trkpt>
      <trkpt lat="46.29664" lon="6.03343">
        <ele>559.57</ele>
        <time>2015-09-02T16:21:49Z</time>
      </trkpt>
      <trkpt lat="46.29664" lon="6.03337">
        <ele>559.75</ele>
        <time>2015-09-02T16:21:50Z</time>
      </trkpt>
      <trkpt lat="46.29663" lon="6.0333">
        <ele>559.88</ele>
        <time>2015-09-02T16:21:51Z</time>
      </trkpt>
      <trkpt lat="46.29663" lon="6.03323">
        <ele>559.91</ele>
        <time>2015-09-02T16:21:52Z</time>
      </trkpt>
      <trkpt lat="46.29662" lon="6.03316">
        <ele>559.91</ele>
        <time>2015-09-02T16:21:53Z</time>
      </trkpt>
      <trkpt lat="46.29662" lon="6.0331">
        <ele>559.99</ele>
        <time>2015-09-02T16:21:54Z</time>
      </trkpt>
      <trkpt lat="46.29662" lon="6.03303">
        <ele>560.07</ele>
        <time>2015-09-02T16:21:55Z</time>
      </trkpt>
      <trkpt lat="46.29662" lon="6.03296">
        <ele>560.11</ele>
        <time>2015-09-02T16:21:56Z</time>
      </trkpt>
      <trkpt lat="46.29663" lon="6.03289">
        <ele>560.19</ele>
        <time>2015-09-02T16:21:57Z</time>
      </trkpt>
      <trkpt lat="46.29666" lon="6.0327">
        <ele>560.27</ele>
        <time>2015-09-02T16:22:00Z</time>
      </trkpt>
      <trkpt lat="46.29667" lon="6.03264">
        <ele>560.22</ele>
        <time>2015-09-02T16:22:01Z</time>
      </trkpt>
      <trkpt lat="46.29677" lon="6.03238">
        <ele>559.82</ele>
        <time>2015-09-02T16:22:05Z</time>
      </trkpt>
      <trkpt lat="46.29678" lon="6.03231">
        <ele>559.63</ele>
        <time>2015-09-02T16:22:06Z</time>
      </trkpt>
      <trkpt lat="46.29678" lon="6.03223">
        <ele>559.54</ele>
        <time>2015-09-02T16:22:07Z</time>
      </trkpt>
      <trkpt lat="46.29677" lon="6.03215">
        <ele>559.36</ele>
        <time>2015-09-02T16:22:08Z</time>
      </trkpt>
      <trkpt lat="46.29673" lon="6.03199">
        <ele>559.45</ele>
        <time>2015-09-02T16:22:10Z</time>
      </trkpt>
      <trkpt lat="46.29667" lon="6.03183">
        <ele>559.34</ele>
        <time>2015-09-02T16:22:12Z</time>
      </trkpt>
      <trkpt lat="46.29663" lon="6.03175">
        <ele>559.24</ele>
        <time>2015-09-02T16:22:13Z</time>
      </trkpt>
      <trkpt lat="46.29634" lon="6.03125">
        <ele>558.87</ele>
        <time>2015-09-02T16:22:20Z</time>
      </trkpt>
      <trkpt lat="46.29629" lon="6.03118">
        <ele>559</ele>
        <time>2015-09-02T16:22:21Z</time>
      </trkpt>
      <trkpt lat="46.29604" lon="6.03082">
        <ele>559.35</ele>
        <time>2015-09-02T16:22:27Z</time>
      </trkpt>
      <trkpt lat="46.29599" lon="6.03077">
        <ele>559.45</ele>
        <time>2015-09-02T16:22:28Z</time>
      </trkpt>
      <trkpt lat="46.29594" lon="6.03072">
        <ele>559.5</ele>
        <time>2015-09-02T16:22:29Z</time>
      </trkpt>
      <trkpt lat="46.29588" lon="6.03068">
        <ele>559.56</ele>
        <time>2015-09-02T16:22:30Z</time>
      </trkpt>
      <trkpt lat="46.29582" lon="6.03065">
        <ele>559.65</ele>
        <time>2015-09-02T16:22:31Z</time>
      </trkpt>
      <trkpt lat="46.29576" lon="6.03062">
        <ele>559.7</ele>
        <time>2015-09-02T16:22:32Z</time>
      </trkpt>
      <trkpt lat="46.2957" lon="6.03058">
        <ele>559.49</ele>
        <time>2015-09-02T16:22:33Z</time>
      </trkpt>
      <trkpt lat="46.29551" lon="6.03046">
        <ele>559.26</ele>
        <time>2015-09-02T16:22:36Z</time>
      </trkpt>
      <trkpt lat="46.29547" lon="6.03039">
        <ele>558.86</ele>
        <time>2015-09-02T16:22:37Z</time>
      </trkpt>
      <trkpt lat="46.29545" lon="6.0303">
        <ele>558.43</ele>
        <time>2015-09-02T16:22:38Z</time>
      </trkpt>
      <trkpt lat="46.29545" lon="6.03019">
        <ele>558.08</ele>
        <time>2015-09-02T16:22:39Z</time>
      </trkpt>
      <trkpt lat="46.29549" lon="6.0301">
        <ele>557.65</ele>
        <time>2015-09-02T16:22:40Z</time>
      </trkpt>
      <trkpt lat="46.29555" lon="6.03001">
        <ele>557.07</ele>
        <time>2015-09-02T16:22:41Z</time>
      </trkpt>
      <trkpt lat="46.29562" lon="6.02994">
        <ele>556.31</ele>
        <time>2015-09-02T16:22:42Z</time>
      </trkpt>
      <trkpt lat="46.2957" lon="6.02988">
        <ele>555.54</ele>
        <time>2015-09-02T16:22:43Z</time>
      </trkpt>
      <trkpt lat="46.29594" lon="6.02964">
        <ele>554.13</ele>
        <time>2015-09-02T16:22:46Z</time>
      </trkpt>
      <trkpt lat="46.29601" lon="6.02954">
        <ele>553.75</ele>
        <time>2015-09-02T16:22:47Z</time>
      </trkpt>
      <trkpt lat="46.29632" lon="6.02918">
        <ele>550.65</ele>
        <time>2015-09-02T16:22:51Z</time>
      </trkpt>
      <trkpt lat="46.29641" lon="6.0291">
        <ele>549.74</ele>
        <time>2015-09-02T16:22:52Z</time>
      </trkpt>
      <trkpt lat="46.2965" lon="6.02902">
        <ele>548.87</ele>
        <time>2015-09-02T16:22:53Z</time>
      </trkpt>
      <trkpt lat="46.29658" lon="6.02892">
        <ele>548.87</ele>
        <time>2015-09-02T16:22:54Z</time>
      </trkpt>
      <trkpt lat="46.29663" lon="6.02881">
        <ele>548.13</ele>
        <time>2015-09-02T16:22:55Z</time>
      </trkpt>
      <trkpt lat="46.29666" lon="6.02869">
        <ele>547.44</ele>
        <time>2015-09-02T16:22:56Z</time>
      </trkpt>
      <trkpt lat="46.29665" lon="6.02856">
        <ele>546.83</ele>
        <time>2015-09-02T16:22:57Z</time>
      </trkpt>
      <trkpt lat="46.29662" lon="6.02845">
        <ele>546.39</ele>
        <time>2015-09-02T16:22:58Z</time>
      </trkpt>
      <trkpt lat="46.29657" lon="6.02836">
        <ele>546.18</ele>
        <time>2015-09-02T16:22:59Z</time>
      </trkpt>
      <trkpt lat="46.29643" lon="6.02823">
        <ele>546.02</ele>
        <time>2015-09-02T16:23:01Z</time>
      </trkpt>
      <trkpt lat="46.29635" lon="6.02821">
        <ele>546.03</ele>
        <time>2015-09-02T16:23:02Z</time>
      </trkpt>
      <trkpt lat="46.29627" lon="6.02821">
        <ele>546.16</ele>
        <time>2015-09-02T16:23:03Z</time>
      </trkpt>
      <trkpt lat="46.29619" lon="6.02821">
        <ele>546.35</ele>
        <time>2015-09-02T16:23:04Z</time>
      </trkpt>
      <trkpt lat="46.29612" lon="6.02822">
        <ele>546.62</ele>
        <time>2015-09-02T16:23:05Z</time>
      </trkpt>
      <trkpt lat="46.29563" lon="6.02836">
        <ele>549.87</ele>
        <time>2015-09-02T16:23:12Z</time>
      </trkpt>
      <trkpt lat="46.29496" lon="6.02863">
        <ele>551.56</ele>
        <time>2015-09-02T16:23:22Z</time>
      </trkpt>
      <trkpt lat="46.29482" lon="6.02865">
        <ele>551.26</ele>
        <time>2015-09-02T16:23:24Z</time>
      </trkpt>
      <trkpt lat="46.29475" lon="6.02865">
        <ele>551.04</ele>
        <time>2015-09-02T16:23:25Z</time>
      </trkpt>
      <trkpt lat="46.29412" lon="6.02849">
        <ele>552.18</ele>
        <time>2015-09-02T16:23:34Z</time>
      </trkpt>
      <trkpt lat="46.29406" lon="6.02845">
        <ele>552.16</ele>
        <time>2015-09-02T16:23:35Z</time>
      </trkpt>
      <trkpt lat="46.29399" lon="6.02839">
        <ele>552.16</ele>
        <time>2015-09-02T16:23:36Z</time>
      </trkpt>
      <trkpt lat="46.29394" lon="6.02832">
        <ele>552.16</ele>
        <time>2015-09-02T16:23:37Z</time>
      </trkpt>
      <trkpt lat="46.29383" lon="6.02814">
        <ele>552.04</ele>
        <time>2015-09-02T16:23:39Z</time>
      </trkpt>
      <trkpt lat="46.29355" lon="6.02767">
        <ele>550.39</ele>
        <time>2015-09-02T16:23:44Z</time>
      </trkpt>
      <trkpt lat="46.29348" lon="6.02758">
        <ele>549.89</ele>
        <time>2015-09-02T16:23:45Z</time>
      </trkpt>
      <trkpt lat="46.29342" lon="6.02751">
        <ele>549.4</ele>
        <time>2015-09-02T16:23:46Z</time>
      </trkpt>
      <trkpt lat="46.29334" lon="6.02745">
        <ele>549.17</ele>
        <time>2015-09-02T16:23:47Z</time>
      </trkpt>
      <trkpt lat="46.29327" lon="6.02741">
        <ele>549.09</ele>
        <time>2015-09-02T16:23:48Z</time>
      </trkpt>
      <trkpt lat="46.2932" lon="6.02739">
        <ele>549.38</ele>
        <time>2015-09-02T16:23:49Z</time>
      </trkpt>
      <trkpt lat="46.29313" lon="6.02737">
        <ele>549.53</ele>
        <time>2015-09-02T16:23:50Z</time>
      </trkpt>
      <trkpt lat="46.29294" lon="6.02731">
        <ele>550.1</ele>
        <time>2015-09-02T16:23:53Z</time>
      </trkpt>
      <trkpt lat="46.29282" lon="6.02725">
        <ele>551.12</ele>
        <time>2015-09-02T16:23:55Z</time>
      </trkpt>
      <trkpt lat="46.29277" lon="6.02721">
        <ele>551.81</ele>
        <time>2015-09-02T16:23:56Z</time>
      </trkpt>
      <trkpt lat="46.29273" lon="6.02716">
        <ele>552.41</ele>
        <time>2015-09-02T16:23:57Z</time>
      </trkpt>
      <trkpt lat="46.29269" lon="6.0271">
        <ele>552.7</ele>
        <time>2015-09-02T16:23:58Z</time>
      </trkpt>
      <trkpt lat="46.29266" lon="6.02704">
        <ele>552.7</ele>
        <time>2015-09-02T16:23:59Z</time>
      </trkpt>
      <trkpt lat="46.29263" lon="6.02697">
        <ele>553.02</ele>
        <time>2015-09-02T16:24:00Z</time>
      </trkpt>
      <trkpt lat="46.2926" lon="6.02691">
        <ele>553.28</ele>
        <time>2015-09-02T16:24:01Z</time>
      </trkpt>
      <trkpt lat="46.29235" lon="6.02633">
        <ele>556.32</ele>
        <time>2015-09-02T16:24:11Z</time>
      </trkpt>
      <trkpt lat="46.29222" lon="6.02614">
        <ele>557.25</ele>
        <time>2015-09-02T16:24:15Z</time>
      </trkpt>
      <trkpt lat="46.29135" lon="6.02543">
        <ele>556.68</ele>
        <time>2015-09-02T16:24:32Z</time>
      </trkpt>
      <trkpt lat="46.29022" lon="6.02447">
        <ele>553.54</ele>
        <time>2015-09-02T16:24:49Z</time>
      </trkpt>
      <trkpt lat="46.28923" lon="6.02353">
        <ele>551.08</ele>
        <time>2015-09-02T16:25:03Z</time>
      </trkpt>
      <trkpt lat="46.28873" lon="6.0231">
        <ele>550.93</ele>
        <time>2015-09-02T16:25:10Z</time>
      </trkpt>
      <trkpt lat="46.28822" lon="6.02286">
        <ele>549.87</ele>
        <time>2015-09-02T16:25:16Z</time>
      </trkpt>
      <trkpt lat="46.28813" lon="6.02279">
        <ele>549.52</ele>
        <time>2015-09-02T16:25:17Z</time>
      </trkpt>
      <trkpt lat="46.28805" lon="6.02272">
        <ele>549.17</ele>
        <time>2015-09-02T16:25:18Z</time>
      </trkpt>
      <trkpt lat="46.28791" lon="6.02255">
        <ele>548.59</ele>
        <time>2015-09-02T16:25:20Z</time>
      </trkpt>
      <trkpt lat="46.28784" lon="6.02246">
        <ele>548.45</ele>
        <time>2015-09-02T16:25:21Z</time>
      </trkpt>
      <trkpt lat="46.28778" lon="6.02237">
        <ele>548.25</ele>
        <time>2015-09-02T16:25:22Z</time>
      </trkpt>
      <trkpt lat="46.28685" lon="6.02125">
        <ele>547.11</ele>
        <time>2015-09-02T16:25:36Z</time>
      </trkpt>
      <trkpt lat="46.28635" lon="6.02075">
        <ele>546.37</ele>
        <time>2015-09-02T16:25:43Z</time>
      </trkpt>
      <trkpt lat="46.28628" lon="6.02069">
        <ele>546.11</ele>
        <time>2015-09-02T16:25:44Z</time>
      </trkpt>
      <trkpt lat="46.28506" lon="6.01979">
        <ele>544.61</ele>
        <time>2015-09-02T16:26:00Z</time>
      </trkpt>
      <trkpt lat="46.28416" lon="6.01921">
        <ele>541.3</ele>
        <time>2015-09-02T16:26:10Z</time>
      </trkpt>
      <trkpt lat="46.28325" lon="6.01853">
        <ele>538.25</ele>
        <time>2015-09-02T16:26:20Z</time>
      </trkpt>
      <trkpt lat="46.28275" lon="6.01809">
        <ele>537.12</ele>
        <time>2015-09-02T16:26:27Z</time>
      </trkpt>
      <trkpt lat="46.28261" lon="6.01788">
        <ele>536.87</ele>
        <time>2015-09-02T16:26:31Z</time>
      </trkpt>
      <trkpt lat="46.28256" lon="6.01784">
        <ele>536.91</ele>
        <time>2015-09-02T16:26:32Z</time>
      </trkpt>
      <trkpt lat="46.2825" lon="6.01782">
        <ele>536.93</ele>
        <time>2015-09-02T16:26:33Z</time>
      </trkpt>
      <trkpt lat="46.28244" lon="6.01779">
        <ele>536.9</ele>
        <time>2015-09-02T16:26:34Z</time>
      </trkpt>
      <trkpt lat="46.28237" lon="6.01775">
        <ele>536.88</ele>
        <time>2015-09-02T16:26:35Z</time>
      </trkpt>
      <trkpt lat="46.28231" lon="6.0177">
        <ele>536.88</ele>
        <time>2015-09-02T16:26:36Z</time>
      </trkpt>
      <trkpt lat="46.28226" lon="6.01762">
        <ele>536.74</ele>
        <time>2015-09-02T16:26:37Z</time>
      </trkpt>
      <trkpt lat="46.28221" lon="6.01753">
        <ele>536.54</ele>
        <time>2015-09-02T16:26:38Z</time>
      </trkpt>
      <trkpt lat="46.28216" lon="6.01744">
        <ele>536.54</ele>
        <time>2015-09-02T16:26:39Z</time>
      </trkpt>
      <trkpt lat="46.28212" lon="6.01734">
        <ele>536.34</ele>
        <time>2015-09-02T16:26:40Z</time>
      </trkpt>
      <trkpt lat="46.28203" lon="6.01716">
        <ele>536.16</ele>
        <time>2015-09-02T16:26:42Z</time>
      </trkpt>
      <trkpt lat="46.28137" lon="6.01616">
        <ele>535.59</ele>
        <time>2015-09-02T16:26:54Z</time>
      </trkpt>
      <trkpt lat="46.28059" lon="6.01546">
        <ele>534.5</ele>
        <time>2015-09-02T16:27:05Z</time>
      </trkpt>
      <trkpt lat="46.27965" lon="6.01471">
        <ele>536.16</ele>
        <time>2015-09-02T16:27:19Z</time>
      </trkpt>
      <trkpt lat="46.2788" lon="6.01413">
        <ele>534.28</ele>
        <time>2015-09-02T16:27:31Z</time>
      </trkpt>
      <trkpt lat="46.2779" lon="6.01353">
        <ele>531.06</ele>
        <time>2015-09-02T16:27:42Z</time>
      </trkpt>
      <trkpt lat="46.27661" lon="6.0127">
        <ele>530.3</ele>
        <time>2015-09-02T16:27:57Z</time>
      </trkpt>
      <trkpt lat="46.27514" lon="6.01191">
        <ele>527.33</ele>
        <time>2015-09-02T16:28:13Z</time>
      </trkpt>
      <trkpt lat="46.27505" lon="6.01187">
        <ele>527.24</ele>
        <time>2015-09-02T16:28:14Z</time>
      </trkpt>
      <trkpt lat="46.27375" lon="6.01113">
        <ele>525.03</ele>
        <time>2015-09-02T16:28:28Z</time>
      </trkpt>
      <trkpt lat="46.27277" lon="6.01012">
        <ele>523.81</ele>
        <time>2015-09-02T16:28:40Z</time>
      </trkpt>
      <trkpt lat="46.27174" lon="6.00909">
        <ele>524.45</ele>
        <time>2015-09-02T16:28:54Z</time>
      </trkpt>
      <trkpt lat="46.27122" lon="6.00798">
        <ele>523.56</ele>
        <time>2015-09-02T16:29:04Z</time>
      </trkpt>
      <trkpt lat="46.27072" lon="6.00681">
        <ele>523.95</ele>
        <time>2015-09-02T16:29:15Z</time>
      </trkpt>
      <trkpt lat="46.27036" lon="6.00565">
        <ele>525.01</ele>
        <time>2015-09-02T16:29:26Z</time>
      </trkpt>
      <trkpt lat="46.27028" lon="6.00546">
        <ele>524.58</ele>
        <time>2015-09-02T16:29:28Z</time>
      </trkpt>
      <trkpt lat="46.27023" lon="6.00536">
        <ele>524.45</ele>
        <time>2015-09-02T16:29:29Z</time>
      </trkpt>
      <trkpt lat="46.27017" lon="6.00528">
        <ele>524.25</ele>
        <time>2015-09-02T16:29:30Z</time>
      </trkpt>
      <trkpt lat="46.2701" lon="6.0052">
        <ele>524.05</ele>
        <time>2015-09-02T16:29:31Z</time>
      </trkpt>
      <trkpt lat="46.27002" lon="6.00513">
        <ele>523.95</ele>
        <time>2015-09-02T16:29:32Z</time>
      </trkpt>
      <trkpt lat="46.26907" lon="6.0045">
        <ele>520.74</ele>
        <time>2015-09-02T16:29:43Z</time>
      </trkpt>
      <trkpt lat="46.26842" lon="6.00405">
        <ele>517.52</ele>
        <time>2015-09-02T16:29:50Z</time>
      </trkpt>
      <trkpt lat="46.26686" lon="6.00268">
        <ele>514.46</ele>
        <time>2015-09-02T16:30:08Z</time>
      </trkpt>
      <trkpt lat="46.26562" lon="6.00194">
        <ele>513.63</ele>
        <time>2015-09-02T16:30:22Z</time>
      </trkpt>
      <trkpt lat="46.26414" lon="6.00058">
        <ele>512.65</ele>
        <time>2015-09-02T16:30:41Z</time>
      </trkpt>
      <trkpt lat="46.26319" lon="5.99958">
        <ele>509.45</ele>
        <time>2015-09-02T16:30:53Z</time>
      </trkpt>
      <trkpt lat="46.2623" lon="5.99873">
        <ele>506.04</ele>
        <time>2015-09-02T16:31:03Z</time>
      </trkpt>
      <trkpt lat="46.26201" lon="5.99848">
        <ele>504.6</ele>
        <time>2015-09-02T16:31:06Z</time>
      </trkpt>
      <trkpt lat="46.26151" lon="5.99811">
        <ele>503.28</ele>
        <time>2015-09-02T16:31:11Z</time>
      </trkpt>
      <trkpt lat="46.26048" lon="5.9976">
        <ele>503.49</ele>
        <time>2015-09-02T16:31:22Z</time>
      </trkpt>
      <trkpt lat="46.25964" lon="5.99696">
        <ele>504</ele>
        <time>2015-09-02T16:31:33Z</time>
      </trkpt>
      <trkpt lat="46.25888" lon="5.99628">
        <ele>503.82</ele>
        <time>2015-09-02T16:31:46Z</time>
      </trkpt>
      <trkpt lat="46.25886" lon="5.99623">
        <ele>503.69</ele>
        <time>2015-09-02T16:31:47Z</time>
      </trkpt>
      <trkpt lat="46.25886" lon="5.99617">
        <ele>503.64</ele>
        <time>2015-09-02T16:31:48Z</time>
      </trkpt>
      <trkpt lat="46.25888" lon="5.99613">
        <ele>503.61</ele>
        <time>2015-09-02T16:31:49Z</time>
      </trkpt>
      <trkpt lat="46.25891" lon="5.99609">
        <ele>503.59</ele>
        <time>2015-09-02T16:31:50Z</time>
      </trkpt>
      <trkpt lat="46.25894" lon="5.99605">
        <ele>503.62</ele>
        <time>2015-09-02T16:31:51Z</time>
      </trkpt>
      <trkpt lat="46.2591" lon="5.99591">
        <ele>504.19</ele>
        <time>2015-09-02T16:31:55Z</time>
      </trkpt>
      <trkpt lat="46.25921" lon="5.99579">
        <ele>505.08</ele>
        <time>2015-09-02T16:31:58Z</time>
      </trkpt>
      <trkpt lat="46.25937" lon="5.99565">
        <ele>505.63</ele>
        <time>2015-09-02T16:32:02Z</time>
      </trkpt>
      <trkpt lat="46.25948" lon="5.99556">
        <ele>506.35</ele>
        <time>2015-09-02T16:32:05Z</time>
      </trkpt>
      <trkpt lat="46.25951" lon="5.99552">
        <ele>506.4</ele>
        <time>2015-09-02T16:32:06Z</time>
      </trkpt>
      <trkpt lat="46.25954" lon="5.99549">
        <ele>506.38</ele>
        <time>2015-09-02T16:32:07Z</time>
      </trkpt>
      <trkpt lat="46.25957" lon="5.99544">
        <ele>506.44</ele>
        <time>2015-09-02T16:32:08Z</time>
      </trkpt>
      <trkpt lat="46.25963" lon="5.99535">
        <ele>506.71</ele>
        <time>2015-09-02T16:32:10Z</time>
      </trkpt>
      <trkpt lat="46.25969" lon="5.99527">
        <ele>507.16</ele>
        <time>2015-09-02T16:32:12Z</time>
      </trkpt>
      <trkpt lat="46.25971" lon="5.99523">
        <ele>507.44</ele>
        <time>2015-09-02T16:32:13Z</time>
      </trkpt>
      <trkpt lat="46.25974" lon="5.99518">
        <ele>507.77</ele>
        <time>2015-09-02T16:32:14Z</time>
      </trkpt>
      <trkpt lat="46.25977" lon="5.99514">
        <ele>508.16</ele>
        <time>2015-09-02T16:32:15Z</time>
      </trkpt>
      <trkpt lat="46.25982" lon="5.99505">
        <ele>508.71</ele>
        <time>2015-09-02T16:32:17Z</time>
      </trkpt>
      <trkpt lat="46.25984" lon="5.995">
        <ele>508.83</ele>
        <time>2015-09-02T16:32:18Z</time>
      </trkpt>
      <trkpt lat="46.25987" lon="5.99495">
        <ele>509.03</ele>
        <time>2015-09-02T16:32:19Z</time>
      </trkpt>
      <trkpt lat="46.2599" lon="5.9949">
        <ele>509.34</ele>
        <time>2015-09-02T16:32:20Z</time>
      </trkpt>
      <trkpt lat="46.25992" lon="5.99486">
        <ele>509.58</ele>
        <time>2015-09-02T16:32:21Z</time>
      </trkpt>
      <trkpt lat="46.25995" lon="5.99482">
        <ele>509.81</ele>
        <time>2015-09-02T16:32:22Z</time>
      </trkpt>
      <trkpt lat="46.25998" lon="5.99479">
        <ele>510.12</ele>
        <time>2015-09-02T16:32:23Z</time>
      </trkpt>
      <trkpt lat="46.26001" lon="5.99475">
        <ele>510.42</ele>
        <time>2015-09-02T16:32:24Z</time>
      </trkpt>
      <trkpt lat="46.26006" lon="5.99469">
        <ele>511.01</ele>
        <time>2015-09-02T16:32:26Z</time>
      </trkpt>
      <trkpt lat="46.26008" lon="5.99467">
        <ele>511.25</ele>
        <time>2015-09-02T16:32:27Z</time>
      </trkpt>
      <trkpt lat="46.26011" lon="5.99464">
        <ele>511.56</ele>
        <time>2015-09-02T16:32:28Z</time>
      </trkpt>
      <trkpt lat="46.26014" lon="5.99461">
        <ele>511.83</ele>
        <time>2015-09-02T16:32:29Z</time>
      </trkpt>
      <trkpt lat="46.26017" lon="5.99458">
        <ele>512.1</ele>
        <time>2015-09-02T16:32:30Z</time>
      </trkpt>
      <trkpt lat="46.2602" lon="5.99455">
        <ele>512.1</ele>
        <time>2015-09-02T16:32:31Z</time>
      </trkpt>
      <trkpt lat="46.26023" lon="5.99453">
        <ele>512.33</ele>
        <time>2015-09-02T16:32:32Z</time>
      </trkpt>
      <trkpt lat="46.26025" lon="5.99451">
        <ele>512.61</ele>
        <time>2015-09-02T16:32:33Z</time>
      </trkpt>
      <trkpt lat="46.26028" lon="5.99449">
        <ele>513.03</ele>
        <time>2015-09-02T16:32:34Z</time>
      </trkpt>
      <trkpt lat="46.2603" lon="5.99446">
        <ele>513.52</ele>
        <time>2015-09-02T16:32:35Z</time>
      </trkpt>
      <trkpt lat="46.26033" lon="5.99444">
        <ele>513.75</ele>
        <time>2015-09-02T16:32:36Z</time>
      </trkpt>
      <trkpt lat="46.26036" lon="5.99443">
        <ele>513.87</ele>
        <time>2015-09-02T16:32:37Z</time>
      </trkpt>
      <trkpt lat="46.2604" lon="5.99441">
        <ele>514.18</ele>
        <time>2015-09-02T16:32:38Z</time>
      </trkpt>
      <trkpt lat="46.26043" lon="5.99438">
        <ele>514.48</ele>
        <time>2015-09-02T16:32:39Z</time>
      </trkpt>
      <trkpt lat="46.26046" lon="5.99436">
        <ele>514.63</ele>
        <time>2015-09-02T16:32:40Z</time>
      </trkpt>
      <trkpt lat="46.26049" lon="5.99433">
        <ele>514.69</ele>
        <time>2015-09-02T16:32:41Z</time>
      </trkpt>
      <trkpt lat="46.26051" lon="5.9943">
        <ele>514.75</ele>
        <time>2015-09-02T16:32:42Z</time>
      </trkpt>
      <trkpt lat="46.26053" lon="5.99427">
        <ele>514.82</ele>
        <time>2015-09-02T16:32:43Z</time>
      </trkpt>
      <trkpt lat="46.26056" lon="5.99425">
        <ele>515.04</ele>
        <time>2015-09-02T16:32:44Z</time>
      </trkpt>
      <trkpt lat="46.2606" lon="5.99421">
        <ele>515.99</ele>
        <time>2015-09-02T16:32:46Z</time>
      </trkpt>
      <trkpt lat="46.26063" lon="5.99415">
        <ele>516.72</ele>
        <time>2015-09-02T16:32:48Z</time>
      </trkpt>
      <trkpt lat="46.26065" lon="5.99413">
        <ele>516.97</ele>
        <time>2015-09-02T16:32:49Z</time>
      </trkpt>
      <trkpt lat="46.26068" lon="5.99408">
        <ele>517.2</ele>
        <time>2015-09-02T16:32:51Z</time>
      </trkpt>
      <trkpt lat="46.2607" lon="5.99406">
        <ele>517.28</ele>
        <time>2015-09-02T16:32:52Z</time>
      </trkpt>
      <trkpt lat="46.26073" lon="5.99403">
        <ele>517.36</ele>
        <time>2015-09-02T16:32:53Z</time>
      </trkpt>
      <trkpt lat="46.26076" lon="5.99401">
        <ele>517.61</ele>
        <time>2015-09-02T16:32:54Z</time>
      </trkpt>
      <trkpt lat="46.26078" lon="5.99397">
        <ele>517.91</ele>
        <time>2015-09-02T16:32:55Z</time>
      </trkpt>
      <trkpt lat="46.26081" lon="5.99394">
        <ele>518.3</ele>
        <time>2015-09-02T16:32:56Z</time>
      </trkpt>
      <trkpt lat="46.26084" lon="5.9939">
        <ele>518.59</ele>
        <time>2015-09-02T16:32:57Z</time>
      </trkpt>
      <trkpt lat="46.26086" lon="5.99385">
        <ele>518.87</ele>
        <time>2015-09-02T16:32:58Z</time>
      </trkpt>
      <trkpt lat="46.26088" lon="5.9938">
        <ele>519.21</ele>
        <time>2015-09-02T16:32:59Z</time>
      </trkpt>
      <trkpt lat="46.26088" lon="5.99375">
        <ele>519.45</ele>
        <time>2015-09-02T16:33:00Z</time>
      </trkpt>
      <trkpt lat="46.26088" lon="5.9937">
        <ele>519.57</ele>
        <time>2015-09-02T16:33:01Z</time>
      </trkpt>
      <trkpt lat="46.26087" lon="5.99365">
        <ele>519.64</ele>
        <time>2015-09-02T16:33:02Z</time>
      </trkpt>
      <trkpt lat="46.26087" lon="5.9936">
        <ele>519.64</ele>
        <time>2015-09-02T16:33:03Z</time>
      </trkpt>
      <trkpt lat="46.26083" lon="5.99349">
        <ele>519.67</ele>
        <time>2015-09-02T16:33:05Z</time>
      </trkpt>
      <trkpt lat="46.26081" lon="5.99343">
        <ele>519.68</ele>
        <time>2015-09-02T16:33:06Z</time>
      </trkpt>
      <trkpt lat="46.26079" lon="5.99338">
        <ele>519.71</ele>
        <time>2015-09-02T16:33:07Z</time>
      </trkpt>
      <trkpt lat="46.26077" lon="5.99332">
        <ele>519.76</ele>
        <time>2015-09-02T16:33:08Z</time>
      </trkpt>
      <trkpt lat="46.26058" lon="5.99297">
        <ele>519.96</ele>
        <time>2015-09-02T16:33:15Z</time>
      </trkpt>
      <trkpt lat="46.26015" lon="5.99253">
        <ele>520.85</ele>
        <time>2015-09-02T16:33:26Z</time>
      </trkpt>
      <trkpt lat="46.26004" lon="5.99248">
        <ele>520.59</ele>
        <time>2015-09-02T16:33:28Z</time>
      </trkpt>
      <trkpt lat="46.25998" lon="5.99246">
        <ele>520.42</ele>
        <time>2015-09-02T16:33:29Z</time>
      </trkpt>
      <trkpt lat="46.25963" lon="5.99241">
        <ele>519.17</ele>
        <time>2015-09-02T16:33:34Z</time>
      </trkpt>
      <trkpt lat="46.25949" lon="5.99235">
        <ele>518.79</ele>
        <time>2015-09-02T16:33:36Z</time>
      </trkpt>
      <trkpt lat="46.25943" lon="5.99229">
        <ele>518.68</ele>
        <time>2015-09-02T16:33:37Z</time>
      </trkpt>
      <trkpt lat="46.25937" lon="5.99222">
        <ele>518.44</ele>
        <time>2015-09-02T16:33:38Z</time>
      </trkpt>
      <trkpt lat="46.25916" lon="5.99197">
        <ele>517.83</ele>
        <time>2015-09-02T16:33:42Z</time>
      </trkpt>
      <trkpt lat="46.25848" lon="5.99113">
        <ele>518.06</ele>
        <time>2015-09-02T16:33:57Z</time>
      </trkpt>
      <trkpt lat="46.25844" lon="5.99088">
        <ele>518.61</ele>
        <time>2015-09-02T16:34:02Z</time>
      </trkpt>
      <trkpt lat="46.2585" lon="5.99079">
        <ele>518.84</ele>
        <time>2015-09-02T16:34:04Z</time>
      </trkpt>
      <trkpt lat="46.25853" lon="5.99075">
        <ele>518.91</ele>
        <time>2015-09-02T16:34:05Z</time>
      </trkpt>
      <trkpt lat="46.25878" lon="5.99043">
        <ele>520.42</ele>
        <time>2015-09-02T16:34:13Z</time>
      </trkpt>
      <trkpt lat="46.25881" lon="5.99039">
        <ele>520.59</ele>
        <time>2015-09-02T16:34:14Z</time>
      </trkpt>
      <trkpt lat="46.25884" lon="5.99034">
        <ele>520.83</ele>
        <time>2015-09-02T16:34:15Z</time>
      </trkpt>
      <trkpt lat="46.25886" lon="5.99029">
        <ele>521.15</ele>
        <time>2015-09-02T16:34:16Z</time>
      </trkpt>
      <trkpt lat="46.25888" lon="5.99024">
        <ele>521.52</ele>
        <time>2015-09-02T16:34:17Z</time>
      </trkpt>
      <trkpt lat="46.2589" lon="5.9902">
        <ele>521.81</ele>
        <time>2015-09-02T16:34:18Z</time>
      </trkpt>
      <trkpt lat="46.25892" lon="5.99015">
        <ele>522.07</ele>
        <time>2015-09-02T16:34:19Z</time>
      </trkpt>
      <trkpt lat="46.25894" lon="5.99011">
        <ele>522.35</ele>
        <time>2015-09-02T16:34:20Z</time>
      </trkpt>
      <trkpt lat="46.25896" lon="5.99006">
        <ele>522.65</ele>
        <time>2015-09-02T16:34:21Z</time>
      </trkpt>
      <trkpt lat="46.25898" lon="5.99002">
        <ele>523.02</ele>
        <time>2015-09-02T16:34:22Z</time>
      </trkpt>
      <trkpt lat="46.259" lon="5.98998">
        <ele>523.51</ele>
        <time>2015-09-02T16:34:23Z</time>
      </trkpt>
      <trkpt lat="46.25901" lon="5.98994">
        <ele>523.99</ele>
        <time>2015-09-02T16:34:24Z</time>
      </trkpt>
      <trkpt lat="46.25902" lon="5.9899">
        <ele>524.4</ele>
        <time>2015-09-02T16:34:25Z</time>
      </trkpt>
      <trkpt lat="46.25902" lon="5.98986">
        <ele>524.79</ele>
        <time>2015-09-02T16:34:26Z</time>
      </trkpt>
      <trkpt lat="46.25902" lon="5.98982">
        <ele>525.15</ele>
        <time>2015-09-02T16:34:27Z</time>
      </trkpt>
      <trkpt lat="46.25903" lon="5.98979">
        <ele>525.38</ele>
        <time>2015-09-02T16:34:28Z</time>
      </trkpt>
      <trkpt lat="46.25903" lon="5.98977">
        <ele>525.49</ele>
        <time>2015-09-02T16:34:29Z</time>
      </trkpt>
    </trkseg>
  </trk>
</gpx>